<?xml version="1.0" encoding="UTF-8" standalone="no" ?>
<gpx xmlns="http://www.topografix.com/GPX/1/1" xmlns:xsi="http://www.w3.org/2001/XMLSchema-instance" xsi:schemaLocation="http://www.topografix.com/GPX/1/1 http://www.topografix.com/GPX/1/1/gpx.xsd" version="1.1" creator="VisuGPX - https://www.visugpx.com">
  <metadata>
    <name>Rando VTT autour de Pignan (34570)</name>
    <desc><![CDATA[Rando VTT autour de Pignan (34570): petite virée au nord de Pignan. Sortie du 21 février 2010 de l'association PIGNAN VTT]]></desc>
  </metadata>
  <trk>
    <name><![CDATA[Rando VTT autour de Pignan (34570)_1]]></name>
    <trkseg>
      <trkpt lat="43.58466" lon="3.75752">
        <ele>53</ele>
        <time>2010-02-21T08:54:52+01:00</time>
      </trkpt>
      <trkpt lat="43.58466" lon="3.75751">
        <ele>53</ele>
        <time>2010-02-21T08:55:08+01:00</time>
      </trkpt>
      <trkpt lat="43.58466" lon="3.75751">
        <ele>53</ele>
        <time>2010-02-21T08:55:23+01:00</time>
      </trkpt>
      <trkpt lat="43.58466" lon="3.75751">
        <ele>53</ele>
        <time>2010-02-21T08:55:44+01:00</time>
      </trkpt>
      <trkpt lat="43.58466" lon="3.7575">
        <ele>53</ele>
        <time>2010-02-21T08:55:59+01:00</time>
      </trkpt>
      <trkpt lat="43.58466" lon="3.7575">
        <ele>53</ele>
        <time>2010-02-21T08:56:20+01:00</time>
      </trkpt>
      <trkpt lat="43.58467" lon="3.7575">
        <ele>53</ele>
        <time>2010-02-21T08:56:35+01:00</time>
      </trkpt>
      <trkpt lat="43.58469" lon="3.75747">
        <ele>53.1</ele>
        <time>2010-02-21T08:56:50+01:00</time>
      </trkpt>
      <trkpt lat="43.58468" lon="3.75747">
        <ele>53.1</ele>
        <time>2010-02-21T08:57:05+01:00</time>
      </trkpt>
      <trkpt lat="43.58466" lon="3.75748">
        <ele>53.1</ele>
        <time>2010-02-21T08:57:26+01:00</time>
      </trkpt>
      <trkpt lat="43.58466" lon="3.75748">
        <ele>53.1</ele>
        <time>2010-02-21T08:57:41+01:00</time>
      </trkpt>
      <trkpt lat="43.58466" lon="3.75748">
        <ele>53.1</ele>
        <time>2010-02-21T08:58:01+01:00</time>
      </trkpt>
      <trkpt lat="43.58466" lon="3.75748">
        <ele>53.1</ele>
        <time>2010-02-21T08:58:16+01:00</time>
      </trkpt>
      <trkpt lat="43.58466" lon="3.75748">
        <ele>53.1</ele>
        <time>2010-02-21T08:58:31+01:00</time>
      </trkpt>
      <trkpt lat="43.58466" lon="3.75748">
        <ele>53.1</ele>
        <time>2010-02-21T08:58:46+01:00</time>
      </trkpt>
      <trkpt lat="43.58469" lon="3.75744">
        <ele>53.2</ele>
        <time>2010-02-21T08:59:09+01:00</time>
      </trkpt>
      <trkpt lat="43.58468" lon="3.75744">
        <ele>53.2</ele>
        <time>2010-02-21T08:59:24+01:00</time>
      </trkpt>
      <trkpt lat="43.58472" lon="3.75744">
        <ele>53.2</ele>
        <time>2010-02-21T08:59:44+01:00</time>
      </trkpt>
      <trkpt lat="43.5847" lon="3.75745">
        <ele>53.2</ele>
        <time>2010-02-21T08:59:59+01:00</time>
      </trkpt>
      <trkpt lat="43.58471" lon="3.75745">
        <ele>53.2</ele>
        <time>2010-02-21T09:00:14+01:00</time>
      </trkpt>
      <trkpt lat="43.58471" lon="3.75745">
        <ele>53.2</ele>
        <time>2010-02-21T09:00:29+01:00</time>
      </trkpt>
      <trkpt lat="43.58471" lon="3.75745">
        <ele>53.2</ele>
        <time>2010-02-21T09:00:50+01:00</time>
      </trkpt>
      <trkpt lat="43.58471" lon="3.75745">
        <ele>53.2</ele>
        <time>2010-02-21T09:01:05+01:00</time>
      </trkpt>
      <trkpt lat="43.58471" lon="3.75745">
        <ele>53.2</ele>
        <time>2010-02-21T09:01:25+01:00</time>
      </trkpt>
      <trkpt lat="43.58471" lon="3.75745">
        <ele>53.2</ele>
        <time>2010-02-21T09:01:40+01:00</time>
      </trkpt>
      <trkpt lat="43.58471" lon="3.75745">
        <ele>53.2</ele>
        <time>2010-02-21T09:02:03+01:00</time>
      </trkpt>
      <trkpt lat="43.58471" lon="3.75745">
        <ele>53.2</ele>
        <time>2010-02-21T09:02:18+01:00</time>
      </trkpt>
      <trkpt lat="43.58471" lon="3.75745">
        <ele>53.2</ele>
        <time>2010-02-21T09:02:38+01:00</time>
      </trkpt>
      <trkpt lat="43.58471" lon="3.75745">
        <ele>53.2</ele>
        <time>2010-02-21T09:02:53+01:00</time>
      </trkpt>
      <trkpt lat="43.58471" lon="3.75745">
        <ele>53.2</ele>
        <time>2010-02-21T09:03:08+01:00</time>
      </trkpt>
      <trkpt lat="43.58471" lon="3.75745">
        <ele>53.2</ele>
        <time>2010-02-21T09:03:23+01:00</time>
      </trkpt>
      <trkpt lat="43.58471" lon="3.75745">
        <ele>53.2</ele>
        <time>2010-02-21T09:03:45+01:00</time>
      </trkpt>
      <trkpt lat="43.58471" lon="3.75745">
        <ele>53.2</ele>
        <time>2010-02-21T09:04:00+01:00</time>
      </trkpt>
      <trkpt lat="43.58471" lon="3.75745">
        <ele>53.2</ele>
        <time>2010-02-21T09:04:15+01:00</time>
      </trkpt>
      <trkpt lat="43.58471" lon="3.75745">
        <ele>53.2</ele>
        <time>2010-02-21T09:04:30+01:00</time>
      </trkpt>
      <trkpt lat="43.58471" lon="3.75745">
        <ele>53.2</ele>
        <time>2010-02-21T09:04:52+01:00</time>
      </trkpt>
      <trkpt lat="43.58471" lon="3.75745">
        <ele>53.2</ele>
        <time>2010-02-21T09:05:07+01:00</time>
      </trkpt>
      <trkpt lat="43.58471" lon="3.75744">
        <ele>53.2</ele>
        <time>2010-02-21T09:05:27+01:00</time>
      </trkpt>
      <trkpt lat="43.58471" lon="3.75744">
        <ele>53.2</ele>
        <time>2010-02-21T09:05:42+01:00</time>
      </trkpt>
      <trkpt lat="43.58471" lon="3.75744">
        <ele>53.2</ele>
        <time>2010-02-21T09:05:57+01:00</time>
      </trkpt>
      <trkpt lat="43.58471" lon="3.75744">
        <ele>53.2</ele>
        <time>2010-02-21T09:06:12+01:00</time>
      </trkpt>
      <trkpt lat="43.58471" lon="3.75744">
        <ele>53.2</ele>
        <time>2010-02-21T09:06:34+01:00</time>
      </trkpt>
      <trkpt lat="43.58471" lon="3.75744">
        <ele>53.2</ele>
        <time>2010-02-21T09:06:49+01:00</time>
      </trkpt>
      <trkpt lat="43.58471" lon="3.75744">
        <ele>53.2</ele>
        <time>2010-02-21T09:07:04+01:00</time>
      </trkpt>
      <trkpt lat="43.58471" lon="3.75744">
        <ele>53.2</ele>
        <time>2010-02-21T09:07:19+01:00</time>
      </trkpt>
      <trkpt lat="43.58471" lon="3.75744">
        <ele>53.2</ele>
        <time>2010-02-21T09:07:41+01:00</time>
      </trkpt>
      <trkpt lat="43.58471" lon="3.75744">
        <ele>53.2</ele>
        <time>2010-02-21T09:07:56+01:00</time>
      </trkpt>
      <trkpt lat="43.58471" lon="3.75744">
        <ele>53.2</ele>
        <time>2010-02-21T09:08:17+01:00</time>
      </trkpt>
      <trkpt lat="43.58471" lon="3.75744">
        <ele>53.2</ele>
        <time>2010-02-21T09:08:32+01:00</time>
      </trkpt>
      <trkpt lat="43.58471" lon="3.75744">
        <ele>53.2</ele>
        <time>2010-02-21T09:08:51+01:00</time>
      </trkpt>
      <trkpt lat="43.58471" lon="3.75744">
        <ele>53.2</ele>
        <time>2010-02-21T09:09:06+01:00</time>
      </trkpt>
      <trkpt lat="43.58471" lon="3.75744">
        <ele>53.2</ele>
        <time>2010-02-21T09:09:27+01:00</time>
      </trkpt>
      <trkpt lat="43.58471" lon="3.75744">
        <ele>53.2</ele>
        <time>2010-02-21T09:09:42+01:00</time>
      </trkpt>
      <trkpt lat="43.58471" lon="3.75744">
        <ele>53.2</ele>
        <time>2010-02-21T09:09:57+01:00</time>
      </trkpt>
      <trkpt lat="43.58471" lon="3.75744">
        <ele>53.2</ele>
        <time>2010-02-21T09:10:12+01:00</time>
      </trkpt>
      <trkpt lat="43.58471" lon="3.75744">
        <ele>53.2</ele>
        <time>2010-02-21T09:10:34+01:00</time>
      </trkpt>
      <trkpt lat="43.58471" lon="3.75744">
        <ele>53.2</ele>
        <time>2010-02-21T09:10:49+01:00</time>
      </trkpt>
      <trkpt lat="43.58471" lon="3.75744">
        <ele>53.2</ele>
        <time>2010-02-21T09:11:04+01:00</time>
      </trkpt>
      <trkpt lat="43.58472" lon="3.75742">
        <ele>53.3</ele>
        <time>2010-02-21T09:11:19+01:00</time>
      </trkpt>
      <trkpt lat="43.58478" lon="3.75741">
        <ele>53.7</ele>
        <time>2010-02-21T09:11:34+01:00</time>
      </trkpt>
      <trkpt lat="43.5848" lon="3.75743">
        <ele>53.7</ele>
        <time>2010-02-21T09:11:49+01:00</time>
      </trkpt>
      <trkpt lat="43.58477" lon="3.75744">
        <ele>53.5</ele>
        <time>2010-02-21T09:12:04+01:00</time>
      </trkpt>
      <trkpt lat="43.58476" lon="3.75745">
        <ele>53.5</ele>
        <time>2010-02-21T09:12:19+01:00</time>
      </trkpt>
      <trkpt lat="43.58476" lon="3.75745">
        <ele>53.5</ele>
        <time>2010-02-21T09:12:34+01:00</time>
      </trkpt>
      <trkpt lat="43.58476" lon="3.75745">
        <ele>53.5</ele>
        <time>2010-02-21T09:12:55+01:00</time>
      </trkpt>
      <trkpt lat="43.58476" lon="3.75745">
        <ele>53.5</ele>
        <time>2010-02-21T09:13:10+01:00</time>
      </trkpt>
      <trkpt lat="43.58477" lon="3.75748">
        <ele>57.700004577637</ele>
        <time>2010-02-21T09:13:29+01:00</time>
      </trkpt>
      <trkpt lat="43.58436" lon="3.75725">
        <ele>63</ele>
        <time>2010-02-21T09:13:44+01:00</time>
      </trkpt>
      <trkpt lat="43.58397" lon="3.75613">
        <ele>57.400001525879</ele>
        <time>2010-02-21T09:14:07+01:00</time>
      </trkpt>
      <trkpt lat="43.58365" lon="3.75536">
        <ele>55.599998474121</ele>
        <time>2010-02-21T09:14:22+01:00</time>
      </trkpt>
      <trkpt lat="43.58317" lon="3.75423">
        <ele>57.099998474121</ele>
        <time>2010-02-21T09:14:43+01:00</time>
      </trkpt>
      <trkpt lat="43.58283" lon="3.75354">
        <ele>60</ele>
        <time>2010-02-21T09:14:58+01:00</time>
      </trkpt>
      <trkpt lat="43.58233" lon="3.75245">
        <ele>57.900001525879</ele>
        <time>2010-02-21T09:15:17+01:00</time>
      </trkpt>
      <trkpt lat="43.58198" lon="3.75171">
        <ele>57.800003051758</ele>
        <time>2010-02-21T09:15:32+01:00</time>
      </trkpt>
      <trkpt lat="43.58147" lon="3.75054">
        <ele>60.900001525879</ele>
        <time>2010-02-21T09:15:55+01:00</time>
      </trkpt>
      <trkpt lat="43.58113" lon="3.74977">
        <ele>60.599998474121</ele>
        <time>2010-02-21T09:16:10+01:00</time>
      </trkpt>
      <trkpt lat="43.58079" lon="3.74899">
        <ele>60.300003051758</ele>
        <time>2010-02-21T09:16:25+01:00</time>
      </trkpt>
      <trkpt lat="43.5804" lon="3.74827">
        <ele>62.5</ele>
        <time>2010-02-21T09:16:40+01:00</time>
      </trkpt>
      <trkpt lat="43.57992" lon="3.74723">
        <ele>61.5</ele>
        <time>2010-02-21T09:17:00+01:00</time>
      </trkpt>
      <trkpt lat="43.57956" lon="3.74648">
        <ele>64.800003051758</ele>
        <time>2010-02-21T09:17:15+01:00</time>
      </trkpt>
      <trkpt lat="43.57922" lon="3.74576">
        <ele>67.300003051758</ele>
        <time>2010-02-21T09:17:30+01:00</time>
      </trkpt>
      <trkpt lat="43.57886" lon="3.74504">
        <ele>65.800003051758</ele>
        <time>2010-02-21T09:17:45+01:00</time>
      </trkpt>
      <trkpt lat="43.57831" lon="3.74391">
        <ele>66.700004577637</ele>
        <time>2010-02-21T09:18:07+01:00</time>
      </trkpt>
      <trkpt lat="43.57776" lon="3.74311">
        <ele>62.5</ele>
        <time>2010-02-21T09:18:22+01:00</time>
      </trkpt>
      <trkpt lat="43.57721" lon="3.74252">
        <ele>60.400001525879</ele>
        <time>2010-02-21T09:18:37+01:00</time>
      </trkpt>
      <trkpt lat="43.57668" lon="3.74193">
        <ele>60.300003051758</ele>
        <time>2010-02-21T09:18:52+01:00</time>
      </trkpt>
      <trkpt lat="43.57586" lon="3.74107">
        <ele>63.400001525879</ele>
        <time>2010-02-21T09:19:14+01:00</time>
      </trkpt>
      <trkpt lat="43.57528" lon="3.74043">
        <ele>63.200004577637</ele>
        <time>2010-02-21T09:19:29+01:00</time>
      </trkpt>
      <trkpt lat="43.57477" lon="3.73981">
        <ele>64.400001525879</ele>
        <time>2010-02-21T09:19:44+01:00</time>
      </trkpt>
      <trkpt lat="43.5746" lon="3.73914">
        <ele>66.400001525879</ele>
        <time>2010-02-21T09:19:59+01:00</time>
      </trkpt>
      <trkpt lat="43.57441" lon="3.73803">
        <ele>68.400001525879</ele>
        <time>2010-02-21T09:20:21+01:00</time>
      </trkpt>
      <trkpt lat="43.57415" lon="3.73753">
        <ele>70.800003051758</ele>
        <time>2010-02-21T09:20:36+01:00</time>
      </trkpt>
      <trkpt lat="43.57397" lon="3.73694">
        <ele>75.5</ele>
        <time>2010-02-21T09:20:57+01:00</time>
      </trkpt>
      <trkpt lat="43.57383" lon="3.73629">
        <ele>77.700004577637</ele>
        <time>2010-02-21T09:21:12+01:00</time>
      </trkpt>
      <trkpt lat="43.57376" lon="3.73572">
        <ele>78.099998474121</ele>
        <time>2010-02-21T09:21:27+01:00</time>
      </trkpt>
      <trkpt lat="43.57407" lon="3.73561">
        <ele>81.300003051758</ele>
        <time>2010-02-21T09:21:42+01:00</time>
      </trkpt>
      <trkpt lat="43.5744" lon="3.7354">
        <ele>85.800003051758</ele>
        <time>2010-02-21T09:22:01+01:00</time>
      </trkpt>
      <trkpt lat="43.57472" lon="3.73526">
        <ele>88.300003051758</ele>
        <time>2010-02-21T09:22:16+01:00</time>
      </trkpt>
      <trkpt lat="43.57501" lon="3.73509">
        <ele>89.199996948242</ele>
        <time>2010-02-21T09:22:31+01:00</time>
      </trkpt>
      <trkpt lat="43.57527" lon="3.73492">
        <ele>92</ele>
        <time>2010-02-21T09:22:46+01:00</time>
      </trkpt>
      <trkpt lat="43.57576" lon="3.73466">
        <ele>92.400009155273</ele>
        <time>2010-02-21T09:23:08+01:00</time>
      </trkpt>
      <trkpt lat="43.57594" lon="3.7352">
        <ele>91.199996948242</ele>
        <time>2010-02-21T09:23:23+01:00</time>
      </trkpt>
      <trkpt lat="43.57625" lon="3.73554">
        <ele>92.199996948242</ele>
        <time>2010-02-21T09:23:38+01:00</time>
      </trkpt>
      <trkpt lat="43.57659" lon="3.73544">
        <ele>93.600006103516</ele>
        <time>2010-02-21T09:23:53+01:00</time>
      </trkpt>
      <trkpt lat="43.57677" lon="3.73512">
        <ele>98.900009155273</ele>
        <time>2010-02-21T09:24:08+01:00</time>
      </trkpt>
      <trkpt lat="43.57688" lon="3.73483">
        <ele>103</ele>
        <time>2010-02-21T09:24:24+01:00</time>
      </trkpt>
      <trkpt lat="43.5768" lon="3.73445">
        <ele>103.5</ele>
        <time>2010-02-21T09:24:39+01:00</time>
      </trkpt>
      <trkpt lat="43.57693" lon="3.73409">
        <ele>105.69999694824</ele>
        <time>2010-02-21T09:24:54+01:00</time>
      </trkpt>
      <trkpt lat="43.57695" lon="3.73388">
        <ele>108.80000305176</ele>
        <time>2010-02-21T09:25:09+01:00</time>
      </trkpt>
      <trkpt lat="43.57686" lon="3.73358">
        <ele>108.90000915527</ele>
        <time>2010-02-21T09:25:24+01:00</time>
      </trkpt>
      <trkpt lat="43.57679" lon="3.73336">
        <ele>109.80000305176</ele>
        <time>2010-02-21T09:25:39+01:00</time>
      </trkpt>
      <trkpt lat="43.57689" lon="3.73305">
        <ele>108</ele>
        <time>2010-02-21T09:25:54+01:00</time>
      </trkpt>
      <trkpt lat="43.57703" lon="3.73285">
        <ele>108.30000305176</ele>
        <time>2010-02-21T09:26:09+01:00</time>
      </trkpt>
      <trkpt lat="43.57708" lon="3.73278">
        <ele>109</ele>
        <time>2010-02-21T09:26:29+01:00</time>
      </trkpt>
      <trkpt lat="43.57691" lon="3.73302">
        <ele>107.60000610352</ele>
        <time>2010-02-21T09:26:44+01:00</time>
      </trkpt>
      <trkpt lat="43.57703" lon="3.73284">
        <ele>110.40000915527</ele>
        <time>2010-02-21T09:26:59+01:00</time>
      </trkpt>
      <trkpt lat="43.57739" lon="3.73236">
        <ele>107.80000305176</ele>
        <time>2010-02-21T09:27:14+01:00</time>
      </trkpt>
      <trkpt lat="43.5781" lon="3.73125">
        <ele>102.90000915527</ele>
        <time>2010-02-21T09:27:35+01:00</time>
      </trkpt>
      <trkpt lat="43.5782" lon="3.73036">
        <ele>105.40000915527</ele>
        <time>2010-02-21T09:27:50+01:00</time>
      </trkpt>
      <trkpt lat="43.57806" lon="3.72946">
        <ele>105</ele>
        <time>2010-02-21T09:28:05+01:00</time>
      </trkpt>
      <trkpt lat="43.57821" lon="3.72861">
        <ele>104.69999694824</ele>
        <time>2010-02-21T09:28:20+01:00</time>
      </trkpt>
      <trkpt lat="43.57838" lon="3.72777">
        <ele>97.800003051758</ele>
        <time>2010-02-21T09:28:42+01:00</time>
      </trkpt>
      <trkpt lat="43.5784" lon="3.72731">
        <ele>100.90000915527</ele>
        <time>2010-02-21T09:28:57+01:00</time>
      </trkpt>
      <trkpt lat="43.5784" lon="3.72679">
        <ele>103.90000915527</ele>
        <time>2010-02-21T09:29:12+01:00</time>
      </trkpt>
      <trkpt lat="43.57851" lon="3.72627">
        <ele>103.19999694824</ele>
        <time>2010-02-21T09:29:27+01:00</time>
      </trkpt>
      <trkpt lat="43.57855" lon="3.72549">
        <ele>104.90000915527</ele>
        <time>2010-02-21T09:29:48+01:00</time>
      </trkpt>
      <trkpt lat="43.57858" lon="3.72495">
        <ele>108.19999694824</ele>
        <time>2010-02-21T09:30:03+01:00</time>
      </trkpt>
      <trkpt lat="43.57879" lon="3.72432">
        <ele>107.19999694824</ele>
        <time>2010-02-21T09:30:18+01:00</time>
      </trkpt>
      <trkpt lat="43.57902" lon="3.72378">
        <ele>107.30000305176</ele>
        <time>2010-02-21T09:30:33+01:00</time>
      </trkpt>
      <trkpt lat="43.57933" lon="3.72317">
        <ele>110</ele>
        <time>2010-02-21T09:30:55+01:00</time>
      </trkpt>
      <trkpt lat="43.57945" lon="3.7227">
        <ele>112.60000610352</ele>
        <time>2010-02-21T09:31:10+01:00</time>
      </trkpt>
      <trkpt lat="43.57956" lon="3.72224">
        <ele>114.10000610352</ele>
        <time>2010-02-21T09:31:25+01:00</time>
      </trkpt>
      <trkpt lat="43.57956" lon="3.72173">
        <ele>114.10000610352</ele>
        <time>2010-02-21T09:31:40+01:00</time>
      </trkpt>
      <trkpt lat="43.57982" lon="3.72116">
        <ele>115</ele>
        <time>2010-02-21T09:32:02+01:00</time>
      </trkpt>
      <trkpt lat="43.5801" lon="3.7208">
        <ele>117.19999694824</ele>
        <time>2010-02-21T09:32:17+01:00</time>
      </trkpt>
      <trkpt lat="43.5802" lon="3.72034">
        <ele>119.40000915527</ele>
        <time>2010-02-21T09:32:32+01:00</time>
      </trkpt>
      <trkpt lat="43.58045" lon="3.71989">
        <ele>119.90000915527</ele>
        <time>2010-02-21T09:32:47+01:00</time>
      </trkpt>
      <trkpt lat="43.5807" lon="3.71916">
        <ele>122.30000305176</ele>
        <time>2010-02-21T09:33:08+01:00</time>
      </trkpt>
      <trkpt lat="43.58077" lon="3.71899">
        <ele>123</ele>
        <time>2010-02-21T09:33:23+01:00</time>
      </trkpt>
      <trkpt lat="43.58094" lon="3.71862">
        <ele>122.40000915527</ele>
        <time>2010-02-21T09:33:38+01:00</time>
      </trkpt>
      <trkpt lat="43.58124" lon="3.71798">
        <ele>117.69999694824</ele>
        <time>2010-02-21T09:33:53+01:00</time>
      </trkpt>
      <trkpt lat="43.58174" lon="3.71706">
        <ele>114.40000915527</ele>
        <time>2010-02-21T09:34:15+01:00</time>
      </trkpt>
      <trkpt lat="43.58207" lon="3.71648">
        <ele>109.80000305176</ele>
        <time>2010-02-21T09:34:30+01:00</time>
      </trkpt>
      <trkpt lat="43.58233" lon="3.71611">
        <ele>110.90000915527</ele>
        <time>2010-02-21T09:34:45+01:00</time>
      </trkpt>
      <trkpt lat="43.5827" lon="3.71548">
        <ele>111.60000610352</ele>
        <time>2010-02-21T09:35:00+01:00</time>
      </trkpt>
      <trkpt lat="43.58303" lon="3.71471">
        <ele>112</ele>
        <time>2010-02-21T09:35:21+01:00</time>
      </trkpt>
      <trkpt lat="43.58323" lon="3.71411">
        <ele>115.19999694824</ele>
        <time>2010-02-21T09:35:36+01:00</time>
      </trkpt>
      <trkpt lat="43.58344" lon="3.71349">
        <ele>115</ele>
        <time>2010-02-21T09:35:51+01:00</time>
      </trkpt>
      <trkpt lat="43.58369" lon="3.71292">
        <ele>115.30000305176</ele>
        <time>2010-02-21T09:36:06+01:00</time>
      </trkpt>
      <trkpt lat="43.58425" lon="3.71286">
        <ele>114.30000305176</ele>
        <time>2010-02-21T09:36:28+01:00</time>
      </trkpt>
      <trkpt lat="43.58457" lon="3.71287">
        <ele>116.40000915527</ele>
        <time>2010-02-21T09:36:43+01:00</time>
      </trkpt>
      <trkpt lat="43.58482" lon="3.71283">
        <ele>119.5</ele>
        <time>2010-02-21T09:36:58+01:00</time>
      </trkpt>
      <trkpt lat="43.58504" lon="3.71254">
        <ele>118</ele>
        <time>2010-02-21T09:37:13+01:00</time>
      </trkpt>
      <trkpt lat="43.58558" lon="3.71235">
        <ele>120.60000610352</ele>
        <time>2010-02-21T09:37:35+01:00</time>
      </trkpt>
      <trkpt lat="43.58595" lon="3.71229">
        <ele>121.19999694824</ele>
        <time>2010-02-21T09:37:50+01:00</time>
      </trkpt>
      <trkpt lat="43.58599" lon="3.71212">
        <ele>123.5</ele>
        <time>2010-02-21T09:38:05+01:00</time>
      </trkpt>
      <trkpt lat="43.58617" lon="3.71219">
        <ele>124</ele>
        <time>2010-02-21T09:38:20+01:00</time>
      </trkpt>
      <trkpt lat="43.58669" lon="3.71209">
        <ele>127.30000305176</ele>
        <time>2010-02-21T09:38:41+01:00</time>
      </trkpt>
      <trkpt lat="43.58706" lon="3.71196">
        <ele>126.40000915527</ele>
        <time>2010-02-21T09:38:56+01:00</time>
      </trkpt>
      <trkpt lat="43.58738" lon="3.7118">
        <ele>127.30000305176</ele>
        <time>2010-02-21T09:39:11+01:00</time>
      </trkpt>
      <trkpt lat="43.58766" lon="3.71164">
        <ele>130.30000305176</ele>
        <time>2010-02-21T09:39:26+01:00</time>
      </trkpt>
      <trkpt lat="43.58798" lon="3.71153">
        <ele>133.69999694824</ele>
        <time>2010-02-21T09:39:47+01:00</time>
      </trkpt>
      <trkpt lat="43.58823" lon="3.7114">
        <ele>136.19999694824</ele>
        <time>2010-02-21T09:40:02+01:00</time>
      </trkpt>
      <trkpt lat="43.58842" lon="3.71133">
        <ele>136</ele>
        <time>2010-02-21T09:40:17+01:00</time>
      </trkpt>
      <trkpt lat="43.58868" lon="3.71124">
        <ele>138</ele>
        <time>2010-02-21T09:40:32+01:00</time>
      </trkpt>
      <trkpt lat="43.58883" lon="3.7112">
        <ele>138.10000610352</ele>
        <time>2010-02-21T09:40:54+01:00</time>
      </trkpt>
      <trkpt lat="43.58888" lon="3.71127">
        <ele>138.10000610352</ele>
        <time>2010-02-21T09:41:09+01:00</time>
      </trkpt>
      <trkpt lat="43.58897" lon="3.71129">
        <ele>142.10000610352</ele>
        <time>2010-02-21T09:41:24+01:00</time>
      </trkpt>
      <trkpt lat="43.5892" lon="3.71133">
        <ele>143.5</ele>
        <time>2010-02-21T09:41:39+01:00</time>
      </trkpt>
      <trkpt lat="43.5896" lon="3.7114">
        <ele>144.90000915527</ele>
        <time>2010-02-21T09:42:00+01:00</time>
      </trkpt>
      <trkpt lat="43.58991" lon="3.71152">
        <ele>146.80000305176</ele>
        <time>2010-02-21T09:42:15+01:00</time>
      </trkpt>
      <trkpt lat="43.5901" lon="3.71193">
        <ele>147.5</ele>
        <time>2010-02-21T09:42:30+01:00</time>
      </trkpt>
      <trkpt lat="43.59028" lon="3.7125">
        <ele>147.60000610352</ele>
        <time>2010-02-21T09:42:45+01:00</time>
      </trkpt>
      <trkpt lat="43.59066" lon="3.71344">
        <ele>148.19999694824</ele>
        <time>2010-02-21T09:43:06+01:00</time>
      </trkpt>
      <trkpt lat="43.59089" lon="3.71417">
        <ele>148.69999694824</ele>
        <time>2010-02-21T09:43:21+01:00</time>
      </trkpt>
      <trkpt lat="43.59132" lon="3.71468">
        <ele>148.80000305176</ele>
        <time>2010-02-21T09:43:36+01:00</time>
      </trkpt>
      <trkpt lat="43.59164" lon="3.71531">
        <ele>149.69999694824</ele>
        <time>2010-02-21T09:43:51+01:00</time>
      </trkpt>
      <trkpt lat="43.59228" lon="3.71624">
        <ele>149</ele>
        <time>2010-02-21T09:44:15+01:00</time>
      </trkpt>
      <trkpt lat="43.59262" lon="3.71658">
        <ele>149.60000610352</ele>
        <time>2010-02-21T09:44:30+01:00</time>
      </trkpt>
      <trkpt lat="43.59312" lon="3.71699">
        <ele>150.90000915527</ele>
        <time>2010-02-21T09:44:49+01:00</time>
      </trkpt>
      <trkpt lat="43.59354" lon="3.71712">
        <ele>151.80000305176</ele>
        <time>2010-02-21T09:45:04+01:00</time>
      </trkpt>
      <trkpt lat="43.594" lon="3.71733">
        <ele>153.10000610352</ele>
        <time>2010-02-21T09:45:19+01:00</time>
      </trkpt>
      <trkpt lat="43.59449" lon="3.71735">
        <ele>149.5</ele>
        <time>2010-02-21T09:45:34+01:00</time>
      </trkpt>
      <trkpt lat="43.59497" lon="3.71691">
        <ele>146.40000915527</ele>
        <time>2010-02-21T09:45:57+01:00</time>
      </trkpt>
      <trkpt lat="43.59536" lon="3.71647">
        <ele>142</ele>
        <time>2010-02-21T09:46:12+01:00</time>
      </trkpt>
      <trkpt lat="43.59573" lon="3.71632">
        <ele>146.10000610352</ele>
        <time>2010-02-21T09:46:27+01:00</time>
      </trkpt>
      <trkpt lat="43.59605" lon="3.71609">
        <ele>149.60000610352</ele>
        <time>2010-02-21T09:46:42+01:00</time>
      </trkpt>
      <trkpt lat="43.59652" lon="3.71579">
        <ele>150.19999694824</ele>
        <time>2010-02-21T09:47:02+01:00</time>
      </trkpt>
      <trkpt lat="43.59683" lon="3.71558">
        <ele>155.10000610352</ele>
        <time>2010-02-21T09:47:17+01:00</time>
      </trkpt>
      <trkpt lat="43.59714" lon="3.71537">
        <ele>158.30000305176</ele>
        <time>2010-02-21T09:47:32+01:00</time>
      </trkpt>
      <trkpt lat="43.59744" lon="3.71516">
        <ele>159.30000305176</ele>
        <time>2010-02-21T09:47:47+01:00</time>
      </trkpt>
      <trkpt lat="43.59792" lon="3.71492">
        <ele>163.90000915527</ele>
        <time>2010-02-21T09:48:09+01:00</time>
      </trkpt>
      <trkpt lat="43.59824" lon="3.71497">
        <ele>166.19999694824</ele>
        <time>2010-02-21T09:48:24+01:00</time>
      </trkpt>
      <trkpt lat="43.59835" lon="3.71547">
        <ele>165.69999694824</ele>
        <time>2010-02-21T09:48:39+01:00</time>
      </trkpt>
      <trkpt lat="43.59866" lon="3.71545">
        <ele>166.60000610352</ele>
        <time>2010-02-21T09:48:54+01:00</time>
      </trkpt>
      <trkpt lat="43.599" lon="3.71544">
        <ele>171.69999694824</ele>
        <time>2010-02-21T09:49:16+01:00</time>
      </trkpt>
      <trkpt lat="43.59925" lon="3.71547">
        <ele>175.60000610352</ele>
        <time>2010-02-21T09:49:31+01:00</time>
      </trkpt>
      <trkpt lat="43.59929" lon="3.71537">
        <ele>178</ele>
        <time>2010-02-21T09:49:46+01:00</time>
      </trkpt>
      <trkpt lat="43.59929" lon="3.71538">
        <ele>178</ele>
        <time>2010-02-21T09:50:01+01:00</time>
      </trkpt>
      <trkpt lat="43.59929" lon="3.71538">
        <ele>178</ele>
        <time>2010-02-21T09:50:22+01:00</time>
      </trkpt>
      <trkpt lat="43.59929" lon="3.71538">
        <ele>178</ele>
        <time>2010-02-21T09:50:37+01:00</time>
      </trkpt>
      <trkpt lat="43.59926" lon="3.71516">
        <ele>175.40000915527</ele>
        <time>2010-02-21T09:50:52+01:00</time>
      </trkpt>
      <trkpt lat="43.59916" lon="3.71483">
        <ele>170.69999694824</ele>
        <time>2010-02-21T09:51:07+01:00</time>
      </trkpt>
      <trkpt lat="43.59906" lon="3.71443">
        <ele>165</ele>
        <time>2010-02-21T09:51:29+01:00</time>
      </trkpt>
      <trkpt lat="43.599" lon="3.71426">
        <ele>157.30000305176</ele>
        <time>2010-02-21T09:51:44+01:00</time>
      </trkpt>
      <trkpt lat="43.59886" lon="3.71352">
        <ele>148.60000610352</ele>
        <time>2010-02-21T09:51:59+01:00</time>
      </trkpt>
      <trkpt lat="43.59882" lon="3.71265">
        <ele>146.30000305176</ele>
        <time>2010-02-21T09:52:14+01:00</time>
      </trkpt>
      <trkpt lat="43.59904" lon="3.7115">
        <ele>142.80000305176</ele>
        <time>2010-02-21T09:52:35+01:00</time>
      </trkpt>
      <trkpt lat="43.59924" lon="3.71071">
        <ele>133.69999694824</ele>
        <time>2010-02-21T09:52:50+01:00</time>
      </trkpt>
      <trkpt lat="43.59943" lon="3.71027">
        <ele>130.30000305176</ele>
        <time>2010-02-21T09:53:05+01:00</time>
      </trkpt>
      <trkpt lat="43.59953" lon="3.70998">
        <ele>129.5</ele>
        <time>2010-02-21T09:53:20+01:00</time>
      </trkpt>
      <trkpt lat="43.59959" lon="3.70952">
        <ele>129.80000305176</ele>
        <time>2010-02-21T09:53:35+01:00</time>
      </trkpt>
      <trkpt lat="43.59965" lon="3.70924">
        <ele>131.30000305176</ele>
        <time>2010-02-21T09:53:50+01:00</time>
      </trkpt>
      <trkpt lat="43.59964" lon="3.70922">
        <ele>132</ele>
        <time>2010-02-21T09:54:05+01:00</time>
      </trkpt>
      <trkpt lat="43.59965" lon="3.7092">
        <ele>132</ele>
        <time>2010-02-21T09:54:20+01:00</time>
      </trkpt>
      <trkpt lat="43.59965" lon="3.70919">
        <ele>132</ele>
        <time>2010-02-21T09:54:35+01:00</time>
      </trkpt>
      <trkpt lat="43.59965" lon="3.70919">
        <ele>132</ele>
        <time>2010-02-21T09:54:50+01:00</time>
      </trkpt>
      <trkpt lat="43.59965" lon="3.70919">
        <ele>132</ele>
        <time>2010-02-21T09:55:05+01:00</time>
      </trkpt>
      <trkpt lat="43.59969" lon="3.70915">
        <ele>133.10000610352</ele>
        <time>2010-02-21T09:55:21+01:00</time>
      </trkpt>
      <trkpt lat="43.59991" lon="3.70932">
        <ele>131.5</ele>
        <time>2010-02-21T09:55:36+01:00</time>
      </trkpt>
      <trkpt lat="43.60032" lon="3.70994">
        <ele>134.10000610352</ele>
        <time>2010-02-21T09:56:01+01:00</time>
      </trkpt>
      <trkpt lat="43.60068" lon="3.71032">
        <ele>131.90000915527</ele>
        <time>2010-02-21T09:56:16+01:00</time>
      </trkpt>
      <trkpt lat="43.60095" lon="3.71085">
        <ele>132.5</ele>
        <time>2010-02-21T09:56:31+01:00</time>
      </trkpt>
      <trkpt lat="43.60129" lon="3.71136">
        <ele>135.10000610352</ele>
        <time>2010-02-21T09:56:46+01:00</time>
      </trkpt>
      <trkpt lat="43.6018" lon="3.71138">
        <ele>135.5</ele>
        <time>2010-02-21T09:57:01+01:00</time>
      </trkpt>
      <trkpt lat="43.60227" lon="3.71115">
        <ele>136.90000915527</ele>
        <time>2010-02-21T09:57:16+01:00</time>
      </trkpt>
      <trkpt lat="43.60271" lon="3.7111">
        <ele>137.19999694824</ele>
        <time>2010-02-21T09:57:31+01:00</time>
      </trkpt>
      <trkpt lat="43.60318" lon="3.71109">
        <ele>139.19999694824</ele>
        <time>2010-02-21T09:57:46+01:00</time>
      </trkpt>
      <trkpt lat="43.60351" lon="3.7111">
        <ele>141.10000610352</ele>
        <time>2010-02-21T09:58:04+01:00</time>
      </trkpt>
      <trkpt lat="43.60372" lon="3.71109">
        <ele>140.69999694824</ele>
        <time>2010-02-21T09:58:19+01:00</time>
      </trkpt>
      <trkpt lat="43.60401" lon="3.71111">
        <ele>142.69999694824</ele>
        <time>2010-02-21T09:58:34+01:00</time>
      </trkpt>
      <trkpt lat="43.60449" lon="3.71088">
        <ele>143.80000305176</ele>
        <time>2010-02-21T09:58:49+01:00</time>
      </trkpt>
      <trkpt lat="43.60503" lon="3.71009">
        <ele>140.10000610352</ele>
        <time>2010-02-21T09:59:11+01:00</time>
      </trkpt>
      <trkpt lat="43.60554" lon="3.71002">
        <ele>143.30000305176</ele>
        <time>2010-02-21T09:59:26+01:00</time>
      </trkpt>
      <trkpt lat="43.60612" lon="3.70982">
        <ele>144.69999694824</ele>
        <time>2010-02-21T09:59:41+01:00</time>
      </trkpt>
      <trkpt lat="43.60664" lon="3.71">
        <ele>144.69999694824</ele>
        <time>2010-02-21T09:59:56+01:00</time>
      </trkpt>
      <trkpt lat="43.60725" lon="3.71033">
        <ele>155.10000610352</ele>
        <time>2010-02-21T10:00:19+01:00</time>
      </trkpt>
      <trkpt lat="43.60774" lon="3.71037">
        <ele>152.5</ele>
        <time>2010-02-21T10:00:34+01:00</time>
      </trkpt>
      <trkpt lat="43.60815" lon="3.71008">
        <ele>155.60000610352</ele>
        <time>2010-02-21T10:00:49+01:00</time>
      </trkpt>
      <trkpt lat="43.60861" lon="3.70989">
        <ele>159.5</ele>
        <time>2010-02-21T10:01:04+01:00</time>
      </trkpt>
      <trkpt lat="43.60925" lon="3.70955">
        <ele>159.40000915527</ele>
        <time>2010-02-21T10:01:24+01:00</time>
      </trkpt>
      <trkpt lat="43.60979" lon="3.7093">
        <ele>159.60000610352</ele>
        <time>2010-02-21T10:01:39+01:00</time>
      </trkpt>
      <trkpt lat="43.61027" lon="3.70933">
        <ele>160.40000915527</ele>
        <time>2010-02-21T10:01:54+01:00</time>
      </trkpt>
      <trkpt lat="43.61071" lon="3.70949">
        <ele>161.40000915527</ele>
        <time>2010-02-21T10:02:09+01:00</time>
      </trkpt>
      <trkpt lat="43.61129" lon="3.70965">
        <ele>162.5</ele>
        <time>2010-02-21T10:02:31+01:00</time>
      </trkpt>
      <trkpt lat="43.61159" lon="3.70968">
        <ele>164.60000610352</ele>
        <time>2010-02-21T10:02:46+01:00</time>
      </trkpt>
      <trkpt lat="43.61191" lon="3.70966">
        <ele>167.5</ele>
        <time>2010-02-21T10:03:01+01:00</time>
      </trkpt>
      <trkpt lat="43.61225" lon="3.70965">
        <ele>169.80000305176</ele>
        <time>2010-02-21T10:03:16+01:00</time>
      </trkpt>
      <trkpt lat="43.61256" lon="3.70971">
        <ele>171.30000305176</ele>
        <time>2010-02-21T10:03:31+01:00</time>
      </trkpt>
      <trkpt lat="43.61285" lon="3.70962">
        <ele>174.80000305176</ele>
        <time>2010-02-21T10:03:46+01:00</time>
      </trkpt>
      <trkpt lat="43.61308" lon="3.70939">
        <ele>174.5</ele>
        <time>2010-02-21T10:04:01+01:00</time>
      </trkpt>
      <trkpt lat="43.61328" lon="3.70906">
        <ele>176.30000305176</ele>
        <time>2010-02-21T10:04:16+01:00</time>
      </trkpt>
      <trkpt lat="43.61349" lon="3.70894">
        <ele>178.30000305176</ele>
        <time>2010-02-21T10:04:31+01:00</time>
      </trkpt>
      <trkpt lat="43.61357" lon="3.7088">
        <ele>179.90000915527</ele>
        <time>2010-02-21T10:04:47+01:00</time>
      </trkpt>
      <trkpt lat="43.61347" lon="3.70861">
        <ele>180.60000610352</ele>
        <time>2010-02-21T10:05:02+01:00</time>
      </trkpt>
      <trkpt lat="43.61361" lon="3.70866">
        <ele>181.40000915527</ele>
        <time>2010-02-21T10:05:17+01:00</time>
      </trkpt>
      <trkpt lat="43.61376" lon="3.70862">
        <ele>182.60000610352</ele>
        <time>2010-02-21T10:05:32+01:00</time>
      </trkpt>
      <trkpt lat="43.61393" lon="3.70837">
        <ele>182.30000305176</ele>
        <time>2010-02-21T10:05:52+01:00</time>
      </trkpt>
      <trkpt lat="43.61405" lon="3.7082">
        <ele>184.80000305176</ele>
        <time>2010-02-21T10:06:07+01:00</time>
      </trkpt>
      <trkpt lat="43.61417" lon="3.70802">
        <ele>188.10000610352</ele>
        <time>2010-02-21T10:06:22+01:00</time>
      </trkpt>
      <trkpt lat="43.61432" lon="3.70778">
        <ele>189.60000610352</ele>
        <time>2010-02-21T10:06:37+01:00</time>
      </trkpt>
      <trkpt lat="43.61463" lon="3.70742">
        <ele>191.5</ele>
        <time>2010-02-21T10:06:58+01:00</time>
      </trkpt>
      <trkpt lat="43.61486" lon="3.7071">
        <ele>193.19999694824</ele>
        <time>2010-02-21T10:07:13+01:00</time>
      </trkpt>
      <trkpt lat="43.61518" lon="3.70669">
        <ele>193.10000610352</ele>
        <time>2010-02-21T10:07:28+01:00</time>
      </trkpt>
      <trkpt lat="43.61563" lon="3.70615">
        <ele>193.60000610352</ele>
        <time>2010-02-21T10:07:43+01:00</time>
      </trkpt>
      <trkpt lat="43.61612" lon="3.70557">
        <ele>192.19999694824</ele>
        <time>2010-02-21T10:08:05+01:00</time>
      </trkpt>
      <trkpt lat="43.61625" lon="3.70546">
        <ele>192.5</ele>
        <time>2010-02-21T10:08:20+01:00</time>
      </trkpt>
      <trkpt lat="43.61639" lon="3.7054">
        <ele>191.5</ele>
        <time>2010-02-21T10:08:35+01:00</time>
      </trkpt>
      <trkpt lat="43.61656" lon="3.70532">
        <ele>191.5</ele>
        <time>2010-02-21T10:08:50+01:00</time>
      </trkpt>
      <trkpt lat="43.61704" lon="3.70504">
        <ele>190.60000610352</ele>
        <time>2010-02-21T10:09:11+01:00</time>
      </trkpt>
      <trkpt lat="43.61748" lon="3.70473">
        <ele>192.60000610352</ele>
        <time>2010-02-21T10:09:26+01:00</time>
      </trkpt>
      <trkpt lat="43.61797" lon="3.70437">
        <ele>193.19999694824</ele>
        <time>2010-02-21T10:09:41+01:00</time>
      </trkpt>
      <trkpt lat="43.61841" lon="3.7038">
        <ele>190.80000305176</ele>
        <time>2010-02-21T10:09:56+01:00</time>
      </trkpt>
      <trkpt lat="43.61901" lon="3.70264">
        <ele>190.5</ele>
        <time>2010-02-21T10:10:18+01:00</time>
      </trkpt>
      <trkpt lat="43.61948" lon="3.70156">
        <ele>182.40000915527</ele>
        <time>2010-02-21T10:10:33+01:00</time>
      </trkpt>
      <trkpt lat="43.61983" lon="3.70078">
        <ele>179.90000915527</ele>
        <time>2010-02-21T10:10:48+01:00</time>
      </trkpt>
      <trkpt lat="43.62011" lon="3.70033">
        <ele>174.60000610352</ele>
        <time>2010-02-21T10:11:03+01:00</time>
      </trkpt>
      <trkpt lat="43.62084" lon="3.70017">
        <ele>170.19999694824</ele>
        <time>2010-02-21T10:11:24+01:00</time>
      </trkpt>
      <trkpt lat="43.62152" lon="3.69991">
        <ele>168.19999694824</ele>
        <time>2010-02-21T10:11:39+01:00</time>
      </trkpt>
      <trkpt lat="43.62222" lon="3.69961">
        <ele>163.19999694824</ele>
        <time>2010-02-21T10:11:54+01:00</time>
      </trkpt>
      <trkpt lat="43.62282" lon="3.69934">
        <ele>161.19999694824</ele>
        <time>2010-02-21T10:12:09+01:00</time>
      </trkpt>
      <trkpt lat="43.62383" lon="3.69902">
        <ele>160.40000915527</ele>
        <time>2010-02-21T10:12:30+01:00</time>
      </trkpt>
      <trkpt lat="43.62452" lon="3.69874">
        <ele>155.60000610352</ele>
        <time>2010-02-21T10:12:45+01:00</time>
      </trkpt>
      <trkpt lat="43.62506" lon="3.69852">
        <ele>152.69999694824</ele>
        <time>2010-02-21T10:13:00+01:00</time>
      </trkpt>
      <trkpt lat="43.62544" lon="3.69802">
        <ele>149.19999694824</ele>
        <time>2010-02-21T10:13:15+01:00</time>
      </trkpt>
      <trkpt lat="43.62617" lon="3.69739">
        <ele>145.60000610352</ele>
        <time>2010-02-21T10:13:37+01:00</time>
      </trkpt>
      <trkpt lat="43.62674" lon="3.69684">
        <ele>143.80000305176</ele>
        <time>2010-02-21T10:13:52+01:00</time>
      </trkpt>
      <trkpt lat="43.62698" lon="3.69668">
        <ele>139.90000915527</ele>
        <time>2010-02-21T10:14:07+01:00</time>
      </trkpt>
      <trkpt lat="43.62707" lon="3.69685">
        <ele>139.80000305176</ele>
        <time>2010-02-21T10:14:22+01:00</time>
      </trkpt>
      <trkpt lat="43.62699" lon="3.69747">
        <ele>144.10000610352</ele>
        <time>2010-02-21T10:14:43+01:00</time>
      </trkpt>
      <trkpt lat="43.62708" lon="3.69791">
        <ele>142.90000915527</ele>
        <time>2010-02-21T10:14:58+01:00</time>
      </trkpt>
      <trkpt lat="43.6271" lon="3.69841">
        <ele>141.80000305176</ele>
        <time>2010-02-21T10:15:13+01:00</time>
      </trkpt>
      <trkpt lat="43.62713" lon="3.69878">
        <ele>142.5</ele>
        <time>2010-02-21T10:15:28+01:00</time>
      </trkpt>
      <trkpt lat="43.62706" lon="3.69919">
        <ele>144.30000305176</ele>
        <time>2010-02-21T10:15:50+01:00</time>
      </trkpt>
      <trkpt lat="43.62707" lon="3.69962">
        <ele>144.69999694824</ele>
        <time>2010-02-21T10:16:05+01:00</time>
      </trkpt>
      <trkpt lat="43.62707" lon="3.7">
        <ele>145.5</ele>
        <time>2010-02-21T10:16:20+01:00</time>
      </trkpt>
      <trkpt lat="43.62701" lon="3.70039">
        <ele>145.80000305176</ele>
        <time>2010-02-21T10:16:35+01:00</time>
      </trkpt>
      <trkpt lat="43.62691" lon="3.70097">
        <ele>145.30000305176</ele>
        <time>2010-02-21T10:16:57+01:00</time>
      </trkpt>
      <trkpt lat="43.62686" lon="3.7014">
        <ele>148.10000610352</ele>
        <time>2010-02-21T10:17:12+01:00</time>
      </trkpt>
      <trkpt lat="43.62677" lon="3.7018">
        <ele>147.80000305176</ele>
        <time>2010-02-21T10:17:27+01:00</time>
      </trkpt>
      <trkpt lat="43.6267" lon="3.70221">
        <ele>147.19999694824</ele>
        <time>2010-02-21T10:17:42+01:00</time>
      </trkpt>
      <trkpt lat="43.62656" lon="3.70289">
        <ele>149</ele>
        <time>2010-02-21T10:18:03+01:00</time>
      </trkpt>
      <trkpt lat="43.6265" lon="3.70327">
        <ele>150.5</ele>
        <time>2010-02-21T10:18:18+01:00</time>
      </trkpt>
      <trkpt lat="43.62643" lon="3.70363">
        <ele>152.5</ele>
        <time>2010-02-21T10:18:33+01:00</time>
      </trkpt>
      <trkpt lat="43.62636" lon="3.70401">
        <ele>151.19999694824</ele>
        <time>2010-02-21T10:18:48+01:00</time>
      </trkpt>
      <trkpt lat="43.62626" lon="3.70463">
        <ele>151.40000915527</ele>
        <time>2010-02-21T10:19:10+01:00</time>
      </trkpt>
      <trkpt lat="43.62623" lon="3.70498">
        <ele>152.40000915527</ele>
        <time>2010-02-21T10:19:25+01:00</time>
      </trkpt>
      <trkpt lat="43.62655" lon="3.70483">
        <ele>151.5</ele>
        <time>2010-02-21T10:19:40+01:00</time>
      </trkpt>
      <trkpt lat="43.62694" lon="3.70459">
        <ele>151.40000915527</ele>
        <time>2010-02-21T10:19:55+01:00</time>
      </trkpt>
      <trkpt lat="43.62755" lon="3.70422">
        <ele>148.30000305176</ele>
        <time>2010-02-21T10:20:16+01:00</time>
      </trkpt>
      <trkpt lat="43.62806" lon="3.70389">
        <ele>151.19999694824</ele>
        <time>2010-02-21T10:20:31+01:00</time>
      </trkpt>
      <trkpt lat="43.62868" lon="3.70351">
        <ele>148.80000305176</ele>
        <time>2010-02-21T10:20:46+01:00</time>
      </trkpt>
      <trkpt lat="43.62954" lon="3.7032">
        <ele>145</ele>
        <time>2010-02-21T10:21:01+01:00</time>
      </trkpt>
      <trkpt lat="43.63074" lon="3.70314">
        <ele>137.80000305176</ele>
        <time>2010-02-21T10:21:23+01:00</time>
      </trkpt>
      <trkpt lat="43.6312" lon="3.7031">
        <ele>136.60000610352</ele>
        <time>2010-02-21T10:21:38+01:00</time>
      </trkpt>
      <trkpt lat="43.63119" lon="3.7026">
        <ele>141.80000305176</ele>
        <time>2010-02-21T10:21:53+01:00</time>
      </trkpt>
      <trkpt lat="43.63106" lon="3.70203">
        <ele>139.69999694824</ele>
        <time>2010-02-21T10:22:08+01:00</time>
      </trkpt>
      <trkpt lat="43.63084" lon="3.70127">
        <ele>133.5</ele>
        <time>2010-02-21T10:22:29+01:00</time>
      </trkpt>
      <trkpt lat="43.63079" lon="3.70116">
        <ele>132.19999694824</ele>
        <time>2010-02-21T10:22:44+01:00</time>
      </trkpt>
      <trkpt lat="43.63134" lon="3.70124">
        <ele>132.30000305176</ele>
        <time>2010-02-21T10:22:59+01:00</time>
      </trkpt>
      <trkpt lat="43.63166" lon="3.70064">
        <ele>132.69999694824</ele>
        <time>2010-02-21T10:23:14+01:00</time>
      </trkpt>
      <trkpt lat="43.63184" lon="3.70024">
        <ele>132.80000305176</ele>
        <time>2010-02-21T10:23:29+01:00</time>
      </trkpt>
      <trkpt lat="43.6321" lon="3.7">
        <ele>131.30000305176</ele>
        <time>2010-02-21T10:23:45+01:00</time>
      </trkpt>
      <trkpt lat="43.63224" lon="3.69989">
        <ele>134.40000915527</ele>
        <time>2010-02-21T10:24:00+01:00</time>
      </trkpt>
      <trkpt lat="43.6324" lon="3.69967">
        <ele>137.30000305176</ele>
        <time>2010-02-21T10:24:15+01:00</time>
      </trkpt>
      <trkpt lat="43.63227" lon="3.69978">
        <ele>140.69999694824</ele>
        <time>2010-02-21T10:24:30+01:00</time>
      </trkpt>
      <trkpt lat="43.63201" lon="3.70002">
        <ele>135.80000305176</ele>
        <time>2010-02-21T10:24:46+01:00</time>
      </trkpt>
      <trkpt lat="43.63186" lon="3.70025">
        <ele>134.19999694824</ele>
        <time>2010-02-21T10:25:01+01:00</time>
      </trkpt>
      <trkpt lat="43.63158" lon="3.70048">
        <ele>130.80000305176</ele>
        <time>2010-02-21T10:25:16+01:00</time>
      </trkpt>
      <trkpt lat="43.63167" lon="3.70039">
        <ele>129.40000915527</ele>
        <time>2010-02-21T10:25:31+01:00</time>
      </trkpt>
      <trkpt lat="43.63194" lon="3.70014">
        <ele>129.90000915527</ele>
        <time>2010-02-21T10:25:50+01:00</time>
      </trkpt>
      <trkpt lat="43.63217" lon="3.69994">
        <ele>129.90000915527</ele>
        <time>2010-02-21T10:26:05+01:00</time>
      </trkpt>
      <trkpt lat="43.63239" lon="3.69968">
        <ele>130.5</ele>
        <time>2010-02-21T10:26:20+01:00</time>
      </trkpt>
      <trkpt lat="43.63256" lon="3.69938">
        <ele>136.19999694824</ele>
        <time>2010-02-21T10:26:35+01:00</time>
      </trkpt>
      <trkpt lat="43.63275" lon="3.6992">
        <ele>138.69999694824</ele>
        <time>2010-02-21T10:26:57+01:00</time>
      </trkpt>
      <trkpt lat="43.63239" lon="3.69956">
        <ele>139.30000305176</ele>
        <time>2010-02-21T10:27:12+01:00</time>
      </trkpt>
      <trkpt lat="43.63193" lon="3.70011">
        <ele>135.60000610352</ele>
        <time>2010-02-21T10:27:27+01:00</time>
      </trkpt>
      <trkpt lat="43.63158" lon="3.70056">
        <ele>133.19999694824</ele>
        <time>2010-02-21T10:27:42+01:00</time>
      </trkpt>
      <trkpt lat="43.6317" lon="3.70033">
        <ele>131.5</ele>
        <time>2010-02-21T10:28:03+01:00</time>
      </trkpt>
      <trkpt lat="43.63192" lon="3.70017">
        <ele>132.60000610352</ele>
        <time>2010-02-21T10:28:18+01:00</time>
      </trkpt>
      <trkpt lat="43.63222" lon="3.69991">
        <ele>134.80000305176</ele>
        <time>2010-02-21T10:28:33+01:00</time>
      </trkpt>
      <trkpt lat="43.63246" lon="3.69949">
        <ele>136.30000305176</ele>
        <time>2010-02-21T10:28:48+01:00</time>
      </trkpt>
      <trkpt lat="43.63299" lon="3.69917">
        <ele>138.30000305176</ele>
        <time>2010-02-21T10:29:10+01:00</time>
      </trkpt>
      <trkpt lat="43.63329" lon="3.69888">
        <ele>143.19999694824</ele>
        <time>2010-02-21T10:29:25+01:00</time>
      </trkpt>
      <trkpt lat="43.63343" lon="3.69884">
        <ele>146</ele>
        <time>2010-02-21T10:29:40+01:00</time>
      </trkpt>
      <trkpt lat="43.6334" lon="3.69923">
        <ele>147.40000915527</ele>
        <time>2010-02-21T10:29:55+01:00</time>
      </trkpt>
      <trkpt lat="43.63357" lon="3.69983">
        <ele>148.10000610352</ele>
        <time>2010-02-21T10:30:17+01:00</time>
      </trkpt>
      <trkpt lat="43.63354" lon="3.70042">
        <ele>149.80000305176</ele>
        <time>2010-02-21T10:30:32+01:00</time>
      </trkpt>
      <trkpt lat="43.63357" lon="3.70102">
        <ele>152.69999694824</ele>
        <time>2010-02-21T10:30:47+01:00</time>
      </trkpt>
      <trkpt lat="43.6336" lon="3.70161">
        <ele>153.60000610352</ele>
        <time>2010-02-21T10:31:02+01:00</time>
      </trkpt>
      <trkpt lat="43.63361" lon="3.70245">
        <ele>157.19999694824</ele>
        <time>2010-02-21T10:31:23+01:00</time>
      </trkpt>
      <trkpt lat="43.63362" lon="3.70241">
        <ele>157.60000610352</ele>
        <time>2010-02-21T10:31:38+01:00</time>
      </trkpt>
      <trkpt lat="43.63345" lon="3.70258">
        <ele>156.90000915527</ele>
        <time>2010-02-21T10:31:53+01:00</time>
      </trkpt>
      <trkpt lat="43.63363" lon="3.70321">
        <ele>158.80000305176</ele>
        <time>2010-02-21T10:32:08+01:00</time>
      </trkpt>
      <trkpt lat="43.63361" lon="3.70379">
        <ele>156.69999694824</ele>
        <time>2010-02-21T10:32:30+01:00</time>
      </trkpt>
      <trkpt lat="43.63364" lon="3.70388">
        <ele>155</ele>
        <time>2010-02-21T10:32:45+01:00</time>
      </trkpt>
      <trkpt lat="43.63363" lon="3.70386">
        <ele>154.80000305176</ele>
        <time>2010-02-21T10:33:00+01:00</time>
      </trkpt>
      <trkpt lat="43.63355" lon="3.70397">
        <ele>156.5</ele>
        <time>2010-02-21T10:33:15+01:00</time>
      </trkpt>
      <trkpt lat="43.63359" lon="3.70415">
        <ele>157.80000305176</ele>
        <time>2010-02-21T10:33:36+01:00</time>
      </trkpt>
      <trkpt lat="43.63356" lon="3.70413">
        <ele>157.30000305176</ele>
        <time>2010-02-21T10:33:51+01:00</time>
      </trkpt>
      <trkpt lat="43.63359" lon="3.70447">
        <ele>160.40000915527</ele>
        <time>2010-02-21T10:34:06+01:00</time>
      </trkpt>
      <trkpt lat="43.63362" lon="3.70498">
        <ele>160.90000915527</ele>
        <time>2010-02-21T10:34:21+01:00</time>
      </trkpt>
      <trkpt lat="43.63386" lon="3.70584">
        <ele>153.80000305176</ele>
        <time>2010-02-21T10:34:43+01:00</time>
      </trkpt>
      <trkpt lat="43.63403" lon="3.70607">
        <ele>154.90000915527</ele>
        <time>2010-02-21T10:34:58+01:00</time>
      </trkpt>
      <trkpt lat="43.63407" lon="3.70633">
        <ele>153</ele>
        <time>2010-02-21T10:35:13+01:00</time>
      </trkpt>
      <trkpt lat="43.63406" lon="3.70615">
        <ele>150.60000610352</ele>
        <time>2010-02-21T10:35:28+01:00</time>
      </trkpt>
      <trkpt lat="43.63385" lon="3.70576">
        <ele>151.30000305176</ele>
        <time>2010-02-21T10:35:49+01:00</time>
      </trkpt>
      <trkpt lat="43.63379" lon="3.70526">
        <ele>153</ele>
        <time>2010-02-21T10:36:04+01:00</time>
      </trkpt>
      <trkpt lat="43.63367" lon="3.70475">
        <ele>151.60000610352</ele>
        <time>2010-02-21T10:36:19+01:00</time>
      </trkpt>
      <trkpt lat="43.63357" lon="3.70423">
        <ele>149.19999694824</ele>
        <time>2010-02-21T10:36:34+01:00</time>
      </trkpt>
      <trkpt lat="43.6336" lon="3.70415">
        <ele>152.60000610352</ele>
        <time>2010-02-21T10:36:56+01:00</time>
      </trkpt>
      <trkpt lat="43.6336" lon="3.70415">
        <ele>152.60000610352</ele>
        <time>2010-02-21T10:37:11+01:00</time>
      </trkpt>
      <trkpt lat="43.6336" lon="3.70415">
        <ele>152.60000610352</ele>
        <time>2010-02-21T10:37:26+01:00</time>
      </trkpt>
      <trkpt lat="43.63358" lon="3.70415">
        <ele>152.60000610352</ele>
        <time>2010-02-21T10:37:41+01:00</time>
      </trkpt>
      <trkpt lat="43.63362" lon="3.70397">
        <ele>152.69999694824</ele>
        <time>2010-02-21T10:38:02+01:00</time>
      </trkpt>
      <trkpt lat="43.63364" lon="3.70367">
        <ele>157</ele>
        <time>2010-02-21T10:38:17+01:00</time>
      </trkpt>
      <trkpt lat="43.63368" lon="3.70339">
        <ele>155.40000915527</ele>
        <time>2010-02-21T10:38:32+01:00</time>
      </trkpt>
      <trkpt lat="43.63357" lon="3.70327">
        <ele>155.10000610352</ele>
        <time>2010-02-21T10:38:47+01:00</time>
      </trkpt>
      <trkpt lat="43.63352" lon="3.70325">
        <ele>154.5</ele>
        <time>2010-02-21T10:39:09+01:00</time>
      </trkpt>
      <trkpt lat="43.63371" lon="3.70316">
        <ele>155.80000305176</ele>
        <time>2010-02-21T10:39:24+01:00</time>
      </trkpt>
      <trkpt lat="43.63359" lon="3.70277">
        <ele>155.10000610352</ele>
        <time>2010-02-21T10:39:39+01:00</time>
      </trkpt>
      <trkpt lat="43.63345" lon="3.70225">
        <ele>156</ele>
        <time>2010-02-21T10:39:54+01:00</time>
      </trkpt>
      <trkpt lat="43.63337" lon="3.7022">
        <ele>152.60000610352</ele>
        <time>2010-02-21T10:40:09+01:00</time>
      </trkpt>
      <trkpt lat="43.63346" lon="3.70244">
        <ele>153.5</ele>
        <time>2010-02-21T10:40:25+01:00</time>
      </trkpt>
      <trkpt lat="43.63356" lon="3.70296">
        <ele>155.5</ele>
        <time>2010-02-21T10:40:40+01:00</time>
      </trkpt>
      <trkpt lat="43.63369" lon="3.7033">
        <ele>157.10000610352</ele>
        <time>2010-02-21T10:40:55+01:00</time>
      </trkpt>
      <trkpt lat="43.63369" lon="3.70312">
        <ele>155.90000915527</ele>
        <time>2010-02-21T10:41:10+01:00</time>
      </trkpt>
      <trkpt lat="43.6336" lon="3.70283">
        <ele>153.69999694824</ele>
        <time>2010-02-21T10:41:25+01:00</time>
      </trkpt>
      <trkpt lat="43.6335" lon="3.70252">
        <ele>155.10000610352</ele>
        <time>2010-02-21T10:41:40+01:00</time>
      </trkpt>
      <trkpt lat="43.63341" lon="3.70284">
        <ele>155.10000610352</ele>
        <time>2010-02-21T10:41:55+01:00</time>
      </trkpt>
      <trkpt lat="43.63351" lon="3.70321">
        <ele>156.40000915527</ele>
        <time>2010-02-21T10:42:10+01:00</time>
      </trkpt>
      <trkpt lat="43.63364" lon="3.70294">
        <ele>154.69999694824</ele>
        <time>2010-02-21T10:42:30+01:00</time>
      </trkpt>
      <trkpt lat="43.6335" lon="3.70251">
        <ele>154</ele>
        <time>2010-02-21T10:42:45+01:00</time>
      </trkpt>
      <trkpt lat="43.63342" lon="3.70176">
        <ele>153.90000915527</ele>
        <time>2010-02-21T10:43:00+01:00</time>
      </trkpt>
      <trkpt lat="43.6334" lon="3.70089">
        <ele>151.40000915527</ele>
        <time>2010-02-21T10:43:15+01:00</time>
      </trkpt>
      <trkpt lat="43.63342" lon="3.69952">
        <ele>153.80000305176</ele>
        <time>2010-02-21T10:43:37+01:00</time>
      </trkpt>
      <trkpt lat="43.6334" lon="3.69882">
        <ele>147.80000305176</ele>
        <time>2010-02-21T10:43:52+01:00</time>
      </trkpt>
      <trkpt lat="43.63346" lon="3.69828">
        <ele>147.40000915527</ele>
        <time>2010-02-21T10:44:07+01:00</time>
      </trkpt>
      <trkpt lat="43.63354" lon="3.69775">
        <ele>145.69999694824</ele>
        <time>2010-02-21T10:44:22+01:00</time>
      </trkpt>
      <trkpt lat="43.6332" lon="3.69846">
        <ele>144.10000610352</ele>
        <time>2010-02-21T10:44:43+01:00</time>
      </trkpt>
      <trkpt lat="43.63312" lon="3.69902">
        <ele>147.90000915527</ele>
        <time>2010-02-21T10:44:58+01:00</time>
      </trkpt>
      <trkpt lat="43.63235" lon="3.69961">
        <ele>146.19999694824</ele>
        <time>2010-02-21T10:45:13+01:00</time>
      </trkpt>
      <trkpt lat="43.63163" lon="3.70053">
        <ele>137.5</ele>
        <time>2010-02-21T10:45:28+01:00</time>
      </trkpt>
      <trkpt lat="43.63128" lon="3.70122">
        <ele>132.80000305176</ele>
        <time>2010-02-21T10:45:50+01:00</time>
      </trkpt>
      <trkpt lat="43.6308" lon="3.70136">
        <ele>133.10000610352</ele>
        <time>2010-02-21T10:46:05+01:00</time>
      </trkpt>
      <trkpt lat="43.63091" lon="3.70198">
        <ele>134.69999694824</ele>
        <time>2010-02-21T10:46:20+01:00</time>
      </trkpt>
      <trkpt lat="43.6311" lon="3.7027">
        <ele>134.60000610352</ele>
        <time>2010-02-21T10:46:35+01:00</time>
      </trkpt>
      <trkpt lat="43.63066" lon="3.70308">
        <ele>133.10000610352</ele>
        <time>2010-02-21T10:46:56+01:00</time>
      </trkpt>
      <trkpt lat="43.63018" lon="3.70307">
        <ele>136.19999694824</ele>
        <time>2010-02-21T10:47:11+01:00</time>
      </trkpt>
      <trkpt lat="43.62964" lon="3.70312">
        <ele>137</ele>
        <time>2010-02-21T10:47:26+01:00</time>
      </trkpt>
      <trkpt lat="43.6291" lon="3.70326">
        <ele>139.40000915527</ele>
        <time>2010-02-21T10:47:41+01:00</time>
      </trkpt>
      <trkpt lat="43.62838" lon="3.70361">
        <ele>144.90000915527</ele>
        <time>2010-02-21T10:48:03+01:00</time>
      </trkpt>
      <trkpt lat="43.62799" lon="3.70386">
        <ele>149.5</ele>
        <time>2010-02-21T10:48:18+01:00</time>
      </trkpt>
      <trkpt lat="43.62753" lon="3.70415">
        <ele>150</ele>
        <time>2010-02-21T10:48:33+01:00</time>
      </trkpt>
      <trkpt lat="43.627" lon="3.70445">
        <ele>152.19999694824</ele>
        <time>2010-02-21T10:48:48+01:00</time>
      </trkpt>
      <trkpt lat="43.62619" lon="3.70493">
        <ele>152.5</ele>
        <time>2010-02-21T10:49:09+01:00</time>
      </trkpt>
      <trkpt lat="43.62555" lon="3.70518">
        <ele>151.80000305176</ele>
        <time>2010-02-21T10:49:24+01:00</time>
      </trkpt>
      <trkpt lat="43.62489" lon="3.70532">
        <ele>151.69999694824</ele>
        <time>2010-02-21T10:49:39+01:00</time>
      </trkpt>
      <trkpt lat="43.6242" lon="3.70547">
        <ele>151.5</ele>
        <time>2010-02-21T10:49:54+01:00</time>
      </trkpt>
      <trkpt lat="43.6232" lon="3.70578">
        <ele>153.80000305176</ele>
        <time>2010-02-21T10:50:16+01:00</time>
      </trkpt>
      <trkpt lat="43.62268" lon="3.70647">
        <ele>156.80000305176</ele>
        <time>2010-02-21T10:50:31+01:00</time>
      </trkpt>
      <trkpt lat="43.62225" lon="3.70717">
        <ele>158.19999694824</ele>
        <time>2010-02-21T10:50:46+01:00</time>
      </trkpt>
      <trkpt lat="43.62205" lon="3.70751">
        <ele>156.90000915527</ele>
        <time>2010-02-21T10:51:01+01:00</time>
      </trkpt>
      <trkpt lat="43.62181" lon="3.70729">
        <ele>158.40000915527</ele>
        <time>2010-02-21T10:51:22+01:00</time>
      </trkpt>
      <trkpt lat="43.62141" lon="3.70728">
        <ele>158.5</ele>
        <time>2010-02-21T10:51:37+01:00</time>
      </trkpt>
      <trkpt lat="43.62101" lon="3.70724">
        <ele>161</ele>
        <time>2010-02-21T10:51:52+01:00</time>
      </trkpt>
      <trkpt lat="43.62063" lon="3.70726">
        <ele>165</ele>
        <time>2010-02-21T10:52:07+01:00</time>
      </trkpt>
      <trkpt lat="43.62006" lon="3.70716">
        <ele>165.19999694824</ele>
        <time>2010-02-21T10:52:29+01:00</time>
      </trkpt>
      <trkpt lat="43.61974" lon="3.70692">
        <ele>169.40000915527</ele>
        <time>2010-02-21T10:52:44+01:00</time>
      </trkpt>
      <trkpt lat="43.61936" lon="3.70665">
        <ele>169.5</ele>
        <time>2010-02-21T10:52:59+01:00</time>
      </trkpt>
      <trkpt lat="43.619" lon="3.70642">
        <ele>171.19999694824</ele>
        <time>2010-02-21T10:53:14+01:00</time>
      </trkpt>
      <trkpt lat="43.61857" lon="3.70622">
        <ele>176.40000915527</ele>
        <time>2010-02-21T10:53:36+01:00</time>
      </trkpt>
      <trkpt lat="43.61828" lon="3.7061">
        <ele>178.69999694824</ele>
        <time>2010-02-21T10:53:51+01:00</time>
      </trkpt>
      <trkpt lat="43.61802" lon="3.70596">
        <ele>180.69999694824</ele>
        <time>2010-02-21T10:54:06+01:00</time>
      </trkpt>
      <trkpt lat="43.61778" lon="3.7058">
        <ele>183.5</ele>
        <time>2010-02-21T10:54:21+01:00</time>
      </trkpt>
      <trkpt lat="43.61761" lon="3.7055">
        <ele>188.80000305176</ele>
        <time>2010-02-21T10:54:42+01:00</time>
      </trkpt>
      <trkpt lat="43.61753" lon="3.70523">
        <ele>190.40000915527</ele>
        <time>2010-02-21T10:54:57+01:00</time>
      </trkpt>
      <trkpt lat="43.61744" lon="3.70493">
        <ele>191.80000305176</ele>
        <time>2010-02-21T10:55:12+01:00</time>
      </trkpt>
      <trkpt lat="43.6172" lon="3.70491">
        <ele>191.80000305176</ele>
        <time>2010-02-21T10:55:27+01:00</time>
      </trkpt>
      <trkpt lat="43.61661" lon="3.70528">
        <ele>193.60000610352</ele>
        <time>2010-02-21T10:55:49+01:00</time>
      </trkpt>
      <trkpt lat="43.61604" lon="3.70563">
        <ele>192.60000610352</ele>
        <time>2010-02-21T10:56:04+01:00</time>
      </trkpt>
      <trkpt lat="43.61549" lon="3.70629">
        <ele>195.5</ele>
        <time>2010-02-21T10:56:26+01:00</time>
      </trkpt>
      <trkpt lat="43.61508" lon="3.70676">
        <ele>199.80000305176</ele>
        <time>2010-02-21T10:56:41+01:00</time>
      </trkpt>
      <trkpt lat="43.61464" lon="3.70735">
        <ele>198</ele>
        <time>2010-02-21T10:56:56+01:00</time>
      </trkpt>
      <trkpt lat="43.61418" lon="3.70793">
        <ele>197.60000610352</ele>
        <time>2010-02-21T10:57:11+01:00</time>
      </trkpt>
      <trkpt lat="43.61348" lon="3.70892">
        <ele>187.80000305176</ele>
        <time>2010-02-21T10:57:31+01:00</time>
      </trkpt>
      <trkpt lat="43.61305" lon="3.70937">
        <ele>181.5</ele>
        <time>2010-02-21T10:57:46+01:00</time>
      </trkpt>
      <trkpt lat="43.61256" lon="3.70971">
        <ele>174.5</ele>
        <time>2010-02-21T10:58:01+01:00</time>
      </trkpt>
      <trkpt lat="43.61154" lon="3.70967">
        <ele>169.10000610352</ele>
        <time>2010-02-21T10:58:16+01:00</time>
      </trkpt>
      <trkpt lat="43.60985" lon="3.70929">
        <ele>163.5</ele>
        <time>2010-02-21T10:58:37+01:00</time>
      </trkpt>
      <trkpt lat="43.60871" lon="3.70973">
        <ele>161.60000610352</ele>
        <time>2010-02-21T10:58:52+01:00</time>
      </trkpt>
      <trkpt lat="43.60748" lon="3.7104">
        <ele>158.60000610352</ele>
        <time>2010-02-21T10:59:14+01:00</time>
      </trkpt>
      <trkpt lat="43.6075" lon="3.71026">
        <ele>158.40000915527</ele>
        <time>2010-02-21T10:59:29+01:00</time>
      </trkpt>
      <trkpt lat="43.6075" lon="3.71026">
        <ele>158.40000915527</ele>
        <time>2010-02-21T10:59:44+01:00</time>
      </trkpt>
      <trkpt lat="43.60718" lon="3.71021">
        <ele>167</ele>
        <time>2010-02-21T10:59:59+01:00</time>
      </trkpt>
      <trkpt lat="43.60645" lon="3.71009">
        <ele>160.60000610352</ele>
        <time>2010-02-21T11:00:20+01:00</time>
      </trkpt>
      <trkpt lat="43.60616" lon="3.71054">
        <ele>153.40000915527</ele>
        <time>2010-02-21T11:00:35+01:00</time>
      </trkpt>
      <trkpt lat="43.60621" lon="3.71046">
        <ele>152.30000305176</ele>
        <time>2010-02-21T11:00:50+01:00</time>
      </trkpt>
      <trkpt lat="43.60645" lon="3.71019">
        <ele>152.10000610352</ele>
        <time>2010-02-21T11:01:05+01:00</time>
      </trkpt>
      <trkpt lat="43.60647" lon="3.71018">
        <ele>151.5</ele>
        <time>2010-02-21T11:01:27+01:00</time>
      </trkpt>
      <trkpt lat="43.60646" lon="3.71021">
        <ele>151.5</ele>
        <time>2010-02-21T11:01:42+01:00</time>
      </trkpt>
      <trkpt lat="43.60646" lon="3.71021">
        <ele>151.5</ele>
        <time>2010-02-21T11:01:57+01:00</time>
      </trkpt>
      <trkpt lat="43.60649" lon="3.7102">
        <ele>151.5</ele>
        <time>2010-02-21T11:02:12+01:00</time>
      </trkpt>
      <trkpt lat="43.60648" lon="3.7102">
        <ele>151.5</ele>
        <time>2010-02-21T11:02:34+01:00</time>
      </trkpt>
      <trkpt lat="43.60648" lon="3.7102">
        <ele>151.5</ele>
        <time>2010-02-21T11:02:49+01:00</time>
      </trkpt>
      <trkpt lat="43.60648" lon="3.7102">
        <ele>151.5</ele>
        <time>2010-02-21T11:03:04+01:00</time>
      </trkpt>
      <trkpt lat="43.60645" lon="3.71016">
        <ele>151.5</ele>
        <time>2010-02-21T11:03:19+01:00</time>
      </trkpt>
      <trkpt lat="43.60674" lon="3.71007">
        <ele>149.10000610352</ele>
        <time>2010-02-21T11:03:40+01:00</time>
      </trkpt>
      <trkpt lat="43.60642" lon="3.70987">
        <ele>151.69999694824</ele>
        <time>2010-02-21T11:03:55+01:00</time>
      </trkpt>
      <trkpt lat="43.60603" lon="3.70986">
        <ele>147.80000305176</ele>
        <time>2010-02-21T11:04:10+01:00</time>
      </trkpt>
      <trkpt lat="43.6057" lon="3.71">
        <ele>146.69999694824</ele>
        <time>2010-02-21T11:04:25+01:00</time>
      </trkpt>
      <trkpt lat="43.60525" lon="3.70994">
        <ele>143.80000305176</ele>
        <time>2010-02-21T11:04:47+01:00</time>
      </trkpt>
      <trkpt lat="43.60491" lon="3.71015">
        <ele>145.80000305176</ele>
        <time>2010-02-21T11:05:02+01:00</time>
      </trkpt>
      <trkpt lat="43.60466" lon="3.71047">
        <ele>144.10000610352</ele>
        <time>2010-02-21T11:05:17+01:00</time>
      </trkpt>
      <trkpt lat="43.60441" lon="3.71092">
        <ele>145.10000610352</ele>
        <time>2010-02-21T11:05:32+01:00</time>
      </trkpt>
      <trkpt lat="43.60379" lon="3.71107">
        <ele>147.30000305176</ele>
        <time>2010-02-21T11:05:54+01:00</time>
      </trkpt>
      <trkpt lat="43.60324" lon="3.71099">
        <ele>146.80000305176</ele>
        <time>2010-02-21T11:06:09+01:00</time>
      </trkpt>
      <trkpt lat="43.60265" lon="3.71105">
        <ele>147.5</ele>
        <time>2010-02-21T11:06:24+01:00</time>
      </trkpt>
      <trkpt lat="43.60194" lon="3.71122">
        <ele>140.60000610352</ele>
        <time>2010-02-21T11:06:39+01:00</time>
      </trkpt>
      <trkpt lat="43.60118" lon="3.71121">
        <ele>143.60000610352</ele>
        <time>2010-02-21T11:06:59+01:00</time>
      </trkpt>
      <trkpt lat="43.60063" lon="3.7101">
        <ele>141.69999694824</ele>
        <time>2010-02-21T11:07:14+01:00</time>
      </trkpt>
      <trkpt lat="43.59993" lon="3.70938">
        <ele>137.40000915527</ele>
        <time>2010-02-21T11:07:29+01:00</time>
      </trkpt>
      <trkpt lat="43.59955" lon="3.70931">
        <ele>134.60000610352</ele>
        <time>2010-02-21T11:07:44+01:00</time>
      </trkpt>
      <trkpt lat="43.59909" lon="3.70975">
        <ele>134.30000305176</ele>
        <time>2010-02-21T11:08:07+01:00</time>
      </trkpt>
      <trkpt lat="43.5987" lon="3.70982">
        <ele>135.19999694824</ele>
        <time>2010-02-21T11:08:22+01:00</time>
      </trkpt>
      <trkpt lat="43.59829" lon="3.70971">
        <ele>139.10000610352</ele>
        <time>2010-02-21T11:08:37+01:00</time>
      </trkpt>
      <trkpt lat="43.59787" lon="3.70939">
        <ele>139.30000305176</ele>
        <time>2010-02-21T11:08:52+01:00</time>
      </trkpt>
      <trkpt lat="43.59736" lon="3.70878">
        <ele>145.40000915527</ele>
        <time>2010-02-21T11:09:13+01:00</time>
      </trkpt>
      <trkpt lat="43.59721" lon="3.70815">
        <ele>148</ele>
        <time>2010-02-21T11:09:28+01:00</time>
      </trkpt>
      <trkpt lat="43.59676" lon="3.70764">
        <ele>150.69999694824</ele>
        <time>2010-02-21T11:09:43+01:00</time>
      </trkpt>
      <trkpt lat="43.59616" lon="3.70687">
        <ele>150.40000915527</ele>
        <time>2010-02-21T11:09:58+01:00</time>
      </trkpt>
      <trkpt lat="43.59511" lon="3.70575">
        <ele>143.80000305176</ele>
        <time>2010-02-21T11:10:19+01:00</time>
      </trkpt>
      <trkpt lat="43.59423" lon="3.7057">
        <ele>135.90000915527</ele>
        <time>2010-02-21T11:10:34+01:00</time>
      </trkpt>
      <trkpt lat="43.59393" lon="3.70658">
        <ele>132.90000915527</ele>
        <time>2010-02-21T11:10:49+01:00</time>
      </trkpt>
      <trkpt lat="43.59347" lon="3.70651">
        <ele>129.80000305176</ele>
        <time>2010-02-21T11:11:04+01:00</time>
      </trkpt>
      <trkpt lat="43.59257" lon="3.70576">
        <ele>131</ele>
        <time>2010-02-21T11:11:26+01:00</time>
      </trkpt>
      <trkpt lat="43.59184" lon="3.70531">
        <ele>130</ele>
        <time>2010-02-21T11:11:41+01:00</time>
      </trkpt>
      <trkpt lat="43.59103" lon="3.70558">
        <ele>130.10000610352</ele>
        <time>2010-02-21T11:11:56+01:00</time>
      </trkpt>
      <trkpt lat="43.5908" lon="3.70653">
        <ele>128.10000610352</ele>
        <time>2010-02-21T11:12:11+01:00</time>
      </trkpt>
      <trkpt lat="43.59149" lon="3.70846">
        <ele>117.19999694824</ele>
        <time>2010-02-21T11:12:34+01:00</time>
      </trkpt>
      <trkpt lat="43.59223" lon="3.70856">
        <ele>107.5</ele>
        <time>2010-02-21T11:12:49+01:00</time>
      </trkpt>
      <trkpt lat="43.59164" lon="3.70921">
        <ele>110.10000610352</ele>
        <time>2010-02-21T11:13:10+01:00</time>
      </trkpt>
      <trkpt lat="43.59124" lon="3.70953">
        <ele>110.69999694824</ele>
        <time>2010-02-21T11:13:25+01:00</time>
      </trkpt>
      <trkpt lat="43.59097" lon="3.70995">
        <ele>110.90000915527</ele>
        <time>2010-02-21T11:13:40+01:00</time>
      </trkpt>
      <trkpt lat="43.59067" lon="3.70997">
        <ele>114.19999694824</ele>
        <time>2010-02-21T11:13:55+01:00</time>
      </trkpt>
      <trkpt lat="43.59008" lon="3.70987">
        <ele>116.5</ele>
        <time>2010-02-21T11:14:14+01:00</time>
      </trkpt>
      <trkpt lat="43.58978" lon="3.70945">
        <ele>121.19999694824</ele>
        <time>2010-02-21T11:14:29+01:00</time>
      </trkpt>
      <trkpt lat="43.5895" lon="3.70845">
        <ele>125.69999694824</ele>
        <time>2010-02-21T11:14:53+01:00</time>
      </trkpt>
      <trkpt lat="43.58934" lon="3.70783">
        <ele>127.19999694824</ele>
        <time>2010-02-21T11:15:08+01:00</time>
      </trkpt>
      <trkpt lat="43.58913" lon="3.70723">
        <ele>130.19999694824</ele>
        <time>2010-02-21T11:15:23+01:00</time>
      </trkpt>
      <trkpt lat="43.58857" lon="3.70663">
        <ele>130.90000915527</ele>
        <time>2010-02-21T11:15:38+01:00</time>
      </trkpt>
      <trkpt lat="43.58777" lon="3.70606">
        <ele>131.60000610352</ele>
        <time>2010-02-21T11:15:57+01:00</time>
      </trkpt>
      <trkpt lat="43.58726" lon="3.70554">
        <ele>132.19999694824</ele>
        <time>2010-02-21T11:16:12+01:00</time>
      </trkpt>
      <trkpt lat="43.58666" lon="3.7051">
        <ele>133</ele>
        <time>2010-02-21T11:16:27+01:00</time>
      </trkpt>
      <trkpt lat="43.58624" lon="3.70528">
        <ele>130</ele>
        <time>2010-02-21T11:16:42+01:00</time>
      </trkpt>
      <trkpt lat="43.58608" lon="3.7066">
        <ele>127.40000915527</ele>
        <time>2010-02-21T11:17:05+01:00</time>
      </trkpt>
      <trkpt lat="43.58596" lon="3.70723">
        <ele>127.19999694824</ele>
        <time>2010-02-21T11:17:20+01:00</time>
      </trkpt>
      <trkpt lat="43.58536" lon="3.70736">
        <ele>126.40000915527</ele>
        <time>2010-02-21T11:17:35+01:00</time>
      </trkpt>
      <trkpt lat="43.58484" lon="3.70751">
        <ele>125.40000915527</ele>
        <time>2010-02-21T11:17:50+01:00</time>
      </trkpt>
      <trkpt lat="43.58443" lon="3.70665">
        <ele>126.19999694824</ele>
        <time>2010-02-21T11:18:10+01:00</time>
      </trkpt>
      <trkpt lat="43.58398" lon="3.70663">
        <ele>125.90000915527</ele>
        <time>2010-02-21T11:18:25+01:00</time>
      </trkpt>
      <trkpt lat="43.58347" lon="3.7066">
        <ele>119.60000610352</ele>
        <time>2010-02-21T11:18:40+01:00</time>
      </trkpt>
      <trkpt lat="43.5828" lon="3.70647">
        <ele>114.30000305176</ele>
        <time>2010-02-21T11:18:55+01:00</time>
      </trkpt>
      <trkpt lat="43.58211" lon="3.70647">
        <ele>107.5</ele>
        <time>2010-02-21T11:19:10+01:00</time>
      </trkpt>
      <trkpt lat="43.58161" lon="3.70666">
        <ele>100.80000305176</ele>
        <time>2010-02-21T11:19:25+01:00</time>
      </trkpt>
      <trkpt lat="43.58114" lon="3.707">
        <ele>97.400009155273</ele>
        <time>2010-02-21T11:19:40+01:00</time>
      </trkpt>
      <trkpt lat="43.58104" lon="3.7077">
        <ele>84.699996948242</ele>
        <time>2010-02-21T11:19:55+01:00</time>
      </trkpt>
      <trkpt lat="43.58091" lon="3.70829">
        <ele>80.600006103516</ele>
        <time>2010-02-21T11:20:10+01:00</time>
      </trkpt>
      <trkpt lat="43.5809" lon="3.70875">
        <ele>74.700004577637</ele>
        <time>2010-02-21T11:20:25+01:00</time>
      </trkpt>
      <trkpt lat="43.58093" lon="3.70932">
        <ele>68.5</ele>
        <time>2010-02-21T11:20:40+01:00</time>
      </trkpt>
      <trkpt lat="43.58103" lon="3.70985">
        <ele>67.099998474121</ele>
        <time>2010-02-21T11:20:55+01:00</time>
      </trkpt>
      <trkpt lat="43.58102" lon="3.71023">
        <ele>64.900001525879</ele>
        <time>2010-02-21T11:21:10+01:00</time>
      </trkpt>
      <trkpt lat="43.58103" lon="3.7106">
        <ele>63.300003051758</ele>
        <time>2010-02-21T11:21:30+01:00</time>
      </trkpt>
      <trkpt lat="43.58106" lon="3.71086">
        <ele>65.800003051758</ele>
        <time>2010-02-21T11:21:45+01:00</time>
      </trkpt>
      <trkpt lat="43.58106" lon="3.71094">
        <ele>65.700004577637</ele>
        <time>2010-02-21T11:22:00+01:00</time>
      </trkpt>
      <trkpt lat="43.58105" lon="3.71087">
        <ele>67.200004577637</ele>
        <time>2010-02-21T11:22:15+01:00</time>
      </trkpt>
      <trkpt lat="43.58107" lon="3.71083">
        <ele>67.200004577637</ele>
        <time>2010-02-21T11:22:36+01:00</time>
      </trkpt>
      <trkpt lat="43.5811" lon="3.71112">
        <ele>68.5</ele>
        <time>2010-02-21T11:22:51+01:00</time>
      </trkpt>
      <trkpt lat="43.58116" lon="3.71179">
        <ele>65.300003051758</ele>
        <time>2010-02-21T11:23:12+01:00</time>
      </trkpt>
      <trkpt lat="43.58119" lon="3.7119">
        <ele>66.200004577637</ele>
        <time>2010-02-21T11:23:27+01:00</time>
      </trkpt>
      <trkpt lat="43.58119" lon="3.71191">
        <ele>66.200004577637</ele>
        <time>2010-02-21T11:23:50+01:00</time>
      </trkpt>
      <trkpt lat="43.58119" lon="3.71191">
        <ele>66.200004577637</ele>
        <time>2010-02-21T11:24:05+01:00</time>
      </trkpt>
      <trkpt lat="43.58119" lon="3.71192">
        <ele>66.200004577637</ele>
        <time>2010-02-21T11:24:24+01:00</time>
      </trkpt>
      <trkpt lat="43.58126" lon="3.71176">
        <ele>69.300003051758</ele>
        <time>2010-02-21T11:24:39+01:00</time>
      </trkpt>
      <trkpt lat="43.58139" lon="3.71167">
        <ele>70.200004577637</ele>
        <time>2010-02-21T11:25:00+01:00</time>
      </trkpt>
      <trkpt lat="43.58138" lon="3.71162">
        <ele>70</ele>
        <time>2010-02-21T11:25:15+01:00</time>
      </trkpt>
      <trkpt lat="43.5814" lon="3.7116">
        <ele>68.099998474121</ele>
        <time>2010-02-21T11:25:39+01:00</time>
      </trkpt>
      <trkpt lat="43.5814" lon="3.7116">
        <ele>68.099998474121</ele>
        <time>2010-02-21T11:25:54+01:00</time>
      </trkpt>
      <trkpt lat="43.58139" lon="3.71158">
        <ele>68.099998474121</ele>
        <time>2010-02-21T11:26:15+01:00</time>
      </trkpt>
      <trkpt lat="43.5814" lon="3.7116">
        <ele>68.099998474121</ele>
        <time>2010-02-21T11:26:30+01:00</time>
      </trkpt>
      <trkpt lat="43.5813" lon="3.71165">
        <ele>67.099998474121</ele>
        <time>2010-02-21T11:26:49+01:00</time>
      </trkpt>
      <trkpt lat="43.58125" lon="3.71171">
        <ele>67.800003051758</ele>
        <time>2010-02-21T11:27:04+01:00</time>
      </trkpt>
      <trkpt lat="43.58124" lon="3.7117">
        <ele>67.800003051758</ele>
        <time>2010-02-21T11:27:27+01:00</time>
      </trkpt>
      <trkpt lat="43.58124" lon="3.71171">
        <ele>67.800003051758</ele>
        <time>2010-02-21T11:27:42+01:00</time>
      </trkpt>
      <trkpt lat="43.58123" lon="3.71173">
        <ele>67.800003051758</ele>
        <time>2010-02-21T11:28:01+01:00</time>
      </trkpt>
      <trkpt lat="43.58121" lon="3.71178">
        <ele>63.5</ele>
        <time>2010-02-21T11:28:16+01:00</time>
      </trkpt>
      <trkpt lat="43.58118" lon="3.71189">
        <ele>65.5</ele>
        <time>2010-02-21T11:28:37+01:00</time>
      </trkpt>
      <trkpt lat="43.58118" lon="3.712">
        <ele>66.900001525879</ele>
        <time>2010-02-21T11:28:52+01:00</time>
      </trkpt>
      <trkpt lat="43.58117" lon="3.7122">
        <ele>70.5</ele>
        <time>2010-02-21T11:29:13+01:00</time>
      </trkpt>
      <trkpt lat="43.58112" lon="3.71256">
        <ele>70.800003051758</ele>
        <time>2010-02-21T11:29:28+01:00</time>
      </trkpt>
      <trkpt lat="43.58091" lon="3.71269">
        <ele>70.800003051758</ele>
        <time>2010-02-21T11:29:49+01:00</time>
      </trkpt>
      <trkpt lat="43.58089" lon="3.71262">
        <ele>73.800003051758</ele>
        <time>2010-02-21T11:30:04+01:00</time>
      </trkpt>
      <trkpt lat="43.58082" lon="3.71225">
        <ele>71</ele>
        <time>2010-02-21T11:30:26+01:00</time>
      </trkpt>
      <trkpt lat="43.58081" lon="3.712">
        <ele>70.599998474121</ele>
        <time>2010-02-21T11:30:41+01:00</time>
      </trkpt>
      <trkpt lat="43.58079" lon="3.71172">
        <ele>67.900001525879</ele>
        <time>2010-02-21T11:31:02+01:00</time>
      </trkpt>
      <trkpt lat="43.58075" lon="3.71146">
        <ele>72.099998474121</ele>
        <time>2010-02-21T11:31:17+01:00</time>
      </trkpt>
      <trkpt lat="43.58064" lon="3.71114">
        <ele>74.800003051758</ele>
        <time>2010-02-21T11:31:38+01:00</time>
      </trkpt>
      <trkpt lat="43.58051" lon="3.71093">
        <ele>82.300003051758</ele>
        <time>2010-02-21T11:31:53+01:00</time>
      </trkpt>
      <trkpt lat="43.58043" lon="3.71067">
        <ele>94.400009155273</ele>
        <time>2010-02-21T11:32:15+01:00</time>
      </trkpt>
      <trkpt lat="43.58035" lon="3.71036">
        <ele>92.100006103516</ele>
        <time>2010-02-21T11:32:30+01:00</time>
      </trkpt>
      <trkpt lat="43.58033" lon="3.71">
        <ele>87.900009155273</ele>
        <time>2010-02-21T11:32:46+01:00</time>
      </trkpt>
      <trkpt lat="43.58026" lon="3.70972">
        <ele>84.600006103516</ele>
        <time>2010-02-21T11:33:01+01:00</time>
      </trkpt>
      <trkpt lat="43.58017" lon="3.70938">
        <ele>86.199996948242</ele>
        <time>2010-02-21T11:33:18+01:00</time>
      </trkpt>
      <trkpt lat="43.58009" lon="3.7091">
        <ele>90.699996948242</ele>
        <time>2010-02-21T11:33:33+01:00</time>
      </trkpt>
      <trkpt lat="43.58002" lon="3.70884">
        <ele>89.400009155273</ele>
        <time>2010-02-21T11:33:48+01:00</time>
      </trkpt>
      <trkpt lat="43.5799" lon="3.70857">
        <ele>92.199996948242</ele>
        <time>2010-02-21T11:34:04+01:00</time>
      </trkpt>
      <trkpt lat="43.57981" lon="3.70832">
        <ele>93.600006103516</ele>
        <time>2010-02-21T11:34:19+01:00</time>
      </trkpt>
      <trkpt lat="43.57972" lon="3.70809">
        <ele>97.300003051758</ele>
        <time>2010-02-21T11:34:34+01:00</time>
      </trkpt>
      <trkpt lat="43.57966" lon="3.70786">
        <ele>96.699996948242</ele>
        <time>2010-02-21T11:34:49+01:00</time>
      </trkpt>
      <trkpt lat="43.57956" lon="3.70765">
        <ele>97.5</ele>
        <time>2010-02-21T11:35:04+01:00</time>
      </trkpt>
      <trkpt lat="43.57945" lon="3.70743">
        <ele>101.40000915527</ele>
        <time>2010-02-21T11:35:19+01:00</time>
      </trkpt>
      <trkpt lat="43.5794" lon="3.70715">
        <ele>103</ele>
        <time>2010-02-21T11:35:34+01:00</time>
      </trkpt>
      <trkpt lat="43.57932" lon="3.70687">
        <ele>104.40000915527</ele>
        <time>2010-02-21T11:35:49+01:00</time>
      </trkpt>
      <trkpt lat="43.57928" lon="3.70653">
        <ele>109.19999694824</ele>
        <time>2010-02-21T11:36:08+01:00</time>
      </trkpt>
      <trkpt lat="43.57926" lon="3.70628">
        <ele>107.90000915527</ele>
        <time>2010-02-21T11:36:23+01:00</time>
      </trkpt>
      <trkpt lat="43.57922" lon="3.70598">
        <ele>106.30000305176</ele>
        <time>2010-02-21T11:36:38+01:00</time>
      </trkpt>
      <trkpt lat="43.57917" lon="3.70569">
        <ele>108.90000915527</ele>
        <time>2010-02-21T11:36:53+01:00</time>
      </trkpt>
      <trkpt lat="43.57913" lon="3.70528">
        <ele>108</ele>
        <time>2010-02-21T11:37:15+01:00</time>
      </trkpt>
      <trkpt lat="43.57918" lon="3.70501">
        <ele>110.60000610352</ele>
        <time>2010-02-21T11:37:30+01:00</time>
      </trkpt>
      <trkpt lat="43.57925" lon="3.70459">
        <ele>110.19999694824</ele>
        <time>2010-02-21T11:37:45+01:00</time>
      </trkpt>
      <trkpt lat="43.57946" lon="3.70429">
        <ele>111.40000915527</ele>
        <time>2010-02-21T11:38:00+01:00</time>
      </trkpt>
      <trkpt lat="43.57964" lon="3.70371">
        <ele>111.90000915527</ele>
        <time>2010-02-21T11:38:23+01:00</time>
      </trkpt>
      <trkpt lat="43.57973" lon="3.70341">
        <ele>116.5</ele>
        <time>2010-02-21T11:38:38+01:00</time>
      </trkpt>
      <trkpt lat="43.57988" lon="3.70309">
        <ele>119.30000305176</ele>
        <time>2010-02-21T11:38:59+01:00</time>
      </trkpt>
      <trkpt lat="43.57994" lon="3.70274">
        <ele>122.40000915527</ele>
        <time>2010-02-21T11:39:14+01:00</time>
      </trkpt>
      <trkpt lat="43.57994" lon="3.70235">
        <ele>125.80000305176</ele>
        <time>2010-02-21T11:39:33+01:00</time>
      </trkpt>
      <trkpt lat="43.57988" lon="3.70207">
        <ele>126.10000610352</ele>
        <time>2010-02-21T11:39:48+01:00</time>
      </trkpt>
      <trkpt lat="43.57979" lon="3.70185">
        <ele>129.19999694824</ele>
        <time>2010-02-21T11:40:03+01:00</time>
      </trkpt>
      <trkpt lat="43.57976" lon="3.7016">
        <ele>129.19999694824</ele>
        <time>2010-02-21T11:40:18+01:00</time>
      </trkpt>
      <trkpt lat="43.57957" lon="3.70128">
        <ele>130.30000305176</ele>
        <time>2010-02-21T11:40:41+01:00</time>
      </trkpt>
      <trkpt lat="43.5795" lon="3.70099">
        <ele>128.69999694824</ele>
        <time>2010-02-21T11:40:56+01:00</time>
      </trkpt>
      <trkpt lat="43.57943" lon="3.70041">
        <ele>127.60000610352</ele>
        <time>2010-02-21T11:41:15+01:00</time>
      </trkpt>
      <trkpt lat="43.57947" lon="3.6997">
        <ele>127.5</ele>
        <time>2010-02-21T11:41:30+01:00</time>
      </trkpt>
      <trkpt lat="43.57883" lon="3.69929">
        <ele>125.60000610352</ele>
        <time>2010-02-21T11:41:51+01:00</time>
      </trkpt>
      <trkpt lat="43.57776" lon="3.6996">
        <ele>119.40000915527</ele>
        <time>2010-02-21T11:42:06+01:00</time>
      </trkpt>
      <trkpt lat="43.57591" lon="3.69986">
        <ele>115</ele>
        <time>2010-02-21T11:42:28+01:00</time>
      </trkpt>
      <trkpt lat="43.57549" lon="3.70018">
        <ele>108.10000610352</ele>
        <time>2010-02-21T11:42:43+01:00</time>
      </trkpt>
      <trkpt lat="43.57484" lon="3.70041">
        <ele>106.5</ele>
        <time>2010-02-21T11:42:58+01:00</time>
      </trkpt>
      <trkpt lat="43.57431" lon="3.70043">
        <ele>109</ele>
        <time>2010-02-21T11:43:13+01:00</time>
      </trkpt>
      <trkpt lat="43.57358" lon="3.70083">
        <ele>112.19999694824</ele>
        <time>2010-02-21T11:43:35+01:00</time>
      </trkpt>
      <trkpt lat="43.57318" lon="3.70102">
        <ele>114.5</ele>
        <time>2010-02-21T11:43:50+01:00</time>
      </trkpt>
      <trkpt lat="43.57286" lon="3.70128">
        <ele>113.90000915527</ele>
        <time>2010-02-21T11:44:05+01:00</time>
      </trkpt>
      <trkpt lat="43.57268" lon="3.70147">
        <ele>112.80000305176</ele>
        <time>2010-02-21T11:44:20+01:00</time>
      </trkpt>
      <trkpt lat="43.57246" lon="3.70178">
        <ele>113.19999694824</ele>
        <time>2010-02-21T11:44:41+01:00</time>
      </trkpt>
      <trkpt lat="43.57217" lon="3.7021">
        <ele>108.80000305176</ele>
        <time>2010-02-21T11:44:56+01:00</time>
      </trkpt>
      <trkpt lat="43.57194" lon="3.70249">
        <ele>106.30000305176</ele>
        <time>2010-02-21T11:45:11+01:00</time>
      </trkpt>
      <trkpt lat="43.57189" lon="3.70258">
        <ele>105.40000915527</ele>
        <time>2010-02-21T11:45:26+01:00</time>
      </trkpt>
      <trkpt lat="43.57132" lon="3.70403">
        <ele>100.10000610352</ele>
        <time>2010-02-21T11:45:48+01:00</time>
      </trkpt>
      <trkpt lat="43.57134" lon="3.70423">
        <ele>96.800003051758</ele>
        <time>2010-02-21T11:46:03+01:00</time>
      </trkpt>
      <trkpt lat="43.57139" lon="3.70469">
        <ele>98</ele>
        <time>2010-02-21T11:46:24+01:00</time>
      </trkpt>
      <trkpt lat="43.57125" lon="3.7051">
        <ele>96</ele>
        <time>2010-02-21T11:46:39+01:00</time>
      </trkpt>
      <trkpt lat="43.57111" lon="3.70555">
        <ele>88.900009155273</ele>
        <time>2010-02-21T11:46:54+01:00</time>
      </trkpt>
      <trkpt lat="43.57095" lon="3.70608">
        <ele>82.900009155273</ele>
        <time>2010-02-21T11:47:09+01:00</time>
      </trkpt>
      <trkpt lat="43.57065" lon="3.70662">
        <ele>76.099998474121</ele>
        <time>2010-02-21T11:47:30+01:00</time>
      </trkpt>
      <trkpt lat="43.57029" lon="3.70689">
        <ele>71.400001525879</ele>
        <time>2010-02-21T11:47:45+01:00</time>
      </trkpt>
      <trkpt lat="43.56981" lon="3.70749">
        <ele>69.900001525879</ele>
        <time>2010-02-21T11:48:00+01:00</time>
      </trkpt>
      <trkpt lat="43.56906" lon="3.70808">
        <ele>66.400001525879</ele>
        <time>2010-02-21T11:48:15+01:00</time>
      </trkpt>
      <trkpt lat="43.56811" lon="3.70922">
        <ele>60.200004577637</ele>
        <time>2010-02-21T11:48:37+01:00</time>
      </trkpt>
      <trkpt lat="43.56737" lon="3.71">
        <ele>60.599998474121</ele>
        <time>2010-02-21T11:48:52+01:00</time>
      </trkpt>
      <trkpt lat="43.56662" lon="3.71068">
        <ele>61.099998474121</ele>
        <time>2010-02-21T11:49:07+01:00</time>
      </trkpt>
      <trkpt lat="43.56602" lon="3.71122">
        <ele>58.599998474121</ele>
        <time>2010-02-21T11:49:22+01:00</time>
      </trkpt>
      <trkpt lat="43.56567" lon="3.71155">
        <ele>57.599998474121</ele>
        <time>2010-02-21T11:49:43+01:00</time>
      </trkpt>
      <trkpt lat="43.56553" lon="3.71177">
        <ele>55.900001525879</ele>
        <time>2010-02-21T11:49:58+01:00</time>
      </trkpt>
      <trkpt lat="43.56533" lon="3.71214">
        <ele>57</ele>
        <time>2010-02-21T11:50:13+01:00</time>
      </trkpt>
      <trkpt lat="43.56506" lon="3.71258">
        <ele>58.700004577637</ele>
        <time>2010-02-21T11:50:28+01:00</time>
      </trkpt>
      <trkpt lat="43.56445" lon="3.71287">
        <ele>54.599998474121</ele>
        <time>2010-02-21T11:50:50+01:00</time>
      </trkpt>
      <trkpt lat="43.56389" lon="3.71301">
        <ele>55.599998474121</ele>
        <time>2010-02-21T11:51:05+01:00</time>
      </trkpt>
      <trkpt lat="43.56339" lon="3.71314">
        <ele>49.5</ele>
        <time>2010-02-21T11:51:20+01:00</time>
      </trkpt>
      <trkpt lat="43.56336" lon="3.71317">
        <ele>46.599998474121</ele>
        <time>2010-02-21T11:51:35+01:00</time>
      </trkpt>
      <trkpt lat="43.56329" lon="3.71334">
        <ele>42.400001525879</ele>
        <time>2010-02-21T11:51:56+01:00</time>
      </trkpt>
      <trkpt lat="43.5631" lon="3.71344">
        <ele>44.599998474121</ele>
        <time>2010-02-21T11:52:11+01:00</time>
      </trkpt>
      <trkpt lat="43.5628" lon="3.71354">
        <ele>44.5</ele>
        <time>2010-02-21T11:52:26+01:00</time>
      </trkpt>
      <trkpt lat="43.56261" lon="3.71377">
        <ele>46.800003051758</ele>
        <time>2010-02-21T11:52:41+01:00</time>
      </trkpt>
      <trkpt lat="43.56233" lon="3.71411">
        <ele>48.700004577637</ele>
        <time>2010-02-21T11:53:03+01:00</time>
      </trkpt>
      <trkpt lat="43.56222" lon="3.71432">
        <ele>49.700004577637</ele>
        <time>2010-02-21T11:53:18+01:00</time>
      </trkpt>
      <trkpt lat="43.5621" lon="3.71458">
        <ele>53.099998474121</ele>
        <time>2010-02-21T11:53:33+01:00</time>
      </trkpt>
      <trkpt lat="43.56202" lon="3.71485">
        <ele>53.099998474121</ele>
        <time>2010-02-21T11:53:48+01:00</time>
      </trkpt>
      <trkpt lat="43.56204" lon="3.71497">
        <ele>50.700004577637</ele>
        <time>2010-02-21T11:54:10+01:00</time>
      </trkpt>
      <trkpt lat="43.56206" lon="3.71498">
        <ele>52.400001525879</ele>
        <time>2010-02-21T11:54:25+01:00</time>
      </trkpt>
      <trkpt lat="43.56211" lon="3.71553">
        <ele>52.800003051758</ele>
        <time>2010-02-21T11:54:45+01:00</time>
      </trkpt>
      <trkpt lat="43.56228" lon="3.71578">
        <ele>56.700004577637</ele>
        <time>2010-02-21T11:55:00+01:00</time>
      </trkpt>
      <trkpt lat="43.56261" lon="3.71632">
        <ele>57.800003051758</ele>
        <time>2010-02-21T11:55:17+01:00</time>
      </trkpt>
      <trkpt lat="43.56279" lon="3.71666">
        <ele>60.200004577637</ele>
        <time>2010-02-21T11:55:32+01:00</time>
      </trkpt>
      <trkpt lat="43.56297" lon="3.71711">
        <ele>63.800003051758</ele>
        <time>2010-02-21T11:55:47+01:00</time>
      </trkpt>
      <trkpt lat="43.56314" lon="3.71768">
        <ele>61.900001525879</ele>
        <time>2010-02-21T11:56:02+01:00</time>
      </trkpt>
      <trkpt lat="43.56328" lon="3.71868">
        <ele>63.900001525879</ele>
        <time>2010-02-21T11:56:26+01:00</time>
      </trkpt>
      <trkpt lat="43.56332" lon="3.7195">
        <ele>62.300003051758</ele>
        <time>2010-02-21T11:56:41+01:00</time>
      </trkpt>
      <trkpt lat="43.56331" lon="3.72066">
        <ele>59.200004577637</ele>
        <time>2010-02-21T11:57:00+01:00</time>
      </trkpt>
      <trkpt lat="43.56332" lon="3.72153">
        <ele>56.5</ele>
        <time>2010-02-21T11:57:15+01:00</time>
      </trkpt>
      <trkpt lat="43.56339" lon="3.72235">
        <ele>57.300003051758</ele>
        <time>2010-02-21T11:57:30+01:00</time>
      </trkpt>
      <trkpt lat="43.56362" lon="3.72312">
        <ele>60.700004577637</ele>
        <time>2010-02-21T11:57:45+01:00</time>
      </trkpt>
      <trkpt lat="43.56413" lon="3.72408">
        <ele>55.200004577637</ele>
        <time>2010-02-21T11:58:06+01:00</time>
      </trkpt>
      <trkpt lat="43.56455" lon="3.72453">
        <ele>56.400001525879</ele>
        <time>2010-02-21T11:58:21+01:00</time>
      </trkpt>
      <trkpt lat="43.56498" lon="3.72494">
        <ele>61.099998474121</ele>
        <time>2010-02-21T11:58:36+01:00</time>
      </trkpt>
      <trkpt lat="43.56545" lon="3.72547">
        <ele>57</ele>
        <time>2010-02-21T11:58:51+01:00</time>
      </trkpt>
      <trkpt lat="43.56602" lon="3.72606">
        <ele>59.200004577637</ele>
        <time>2010-02-21T11:59:13+01:00</time>
      </trkpt>
      <trkpt lat="43.56646" lon="3.72647">
        <ele>59.5</ele>
        <time>2010-02-21T11:59:28+01:00</time>
      </trkpt>
      <trkpt lat="43.56695" lon="3.72694">
        <ele>61.700004577637</ele>
        <time>2010-02-21T11:59:43+01:00</time>
      </trkpt>
      <trkpt lat="43.56727" lon="3.72724">
        <ele>62.300003051758</ele>
        <time>2010-02-21T11:59:58+01:00</time>
      </trkpt>
      <trkpt lat="43.56767" lon="3.72775">
        <ele>61.800003051758</ele>
        <time>2010-02-21T12:00:21+01:00</time>
      </trkpt>
      <trkpt lat="43.568" lon="3.72821">
        <ele>58.200004577637</ele>
        <time>2010-02-21T12:00:36+01:00</time>
      </trkpt>
      <trkpt lat="43.5684" lon="3.72876">
        <ele>58.200004577637</ele>
        <time>2010-02-21T12:00:56+01:00</time>
      </trkpt>
      <trkpt lat="43.56873" lon="3.72922">
        <ele>58.700004577637</ele>
        <time>2010-02-21T12:01:11+01:00</time>
      </trkpt>
      <trkpt lat="43.56898" lon="3.72966">
        <ele>60.300003051758</ele>
        <time>2010-02-21T12:01:26+01:00</time>
      </trkpt>
      <trkpt lat="43.56926" lon="3.7301">
        <ele>59.300003051758</ele>
        <time>2010-02-21T12:01:41+01:00</time>
      </trkpt>
      <trkpt lat="43.56964" lon="3.73074">
        <ele>58.200004577637</ele>
        <time>2010-02-21T12:02:02+01:00</time>
      </trkpt>
      <trkpt lat="43.56991" lon="3.73122">
        <ele>62.900001525879</ele>
        <time>2010-02-21T12:02:17+01:00</time>
      </trkpt>
      <trkpt lat="43.57021" lon="3.73165">
        <ele>63.599998474121</ele>
        <time>2010-02-21T12:02:37+01:00</time>
      </trkpt>
      <trkpt lat="43.57046" lon="3.73211">
        <ele>63.599998474121</ele>
        <time>2010-02-21T12:02:52+01:00</time>
      </trkpt>
      <trkpt lat="43.57093" lon="3.73286">
        <ele>60.700004577637</ele>
        <time>2010-02-21T12:03:15+01:00</time>
      </trkpt>
      <trkpt lat="43.57115" lon="3.73328">
        <ele>59.700004577637</ele>
        <time>2010-02-21T12:03:30+01:00</time>
      </trkpt>
      <trkpt lat="43.57149" lon="3.73392">
        <ele>59.900001525879</ele>
        <time>2010-02-21T12:03:50+01:00</time>
      </trkpt>
      <trkpt lat="43.57181" lon="3.73447">
        <ele>59.300003051758</ele>
        <time>2010-02-21T12:04:05+01:00</time>
      </trkpt>
      <trkpt lat="43.57204" lon="3.7349">
        <ele>57.900001525879</ele>
        <time>2010-02-21T12:04:20+01:00</time>
      </trkpt>
      <trkpt lat="43.57227" lon="3.73531">
        <ele>56.300003051758</ele>
        <time>2010-02-21T12:04:35+01:00</time>
      </trkpt>
      <trkpt lat="43.57265" lon="3.73604">
        <ele>57.599998474121</ele>
        <time>2010-02-21T12:04:56+01:00</time>
      </trkpt>
      <trkpt lat="43.57296" lon="3.7366">
        <ele>58.5</ele>
        <time>2010-02-21T12:05:11+01:00</time>
      </trkpt>
      <trkpt lat="43.57332" lon="3.73723">
        <ele>58.099998474121</ele>
        <time>2010-02-21T12:05:26+01:00</time>
      </trkpt>
      <trkpt lat="43.57366" lon="3.73786">
        <ele>56.200004577637</ele>
        <time>2010-02-21T12:05:41+01:00</time>
      </trkpt>
      <trkpt lat="43.57416" lon="3.73871">
        <ele>60.700004577637</ele>
        <time>2010-02-21T12:06:02+01:00</time>
      </trkpt>
      <trkpt lat="43.57452" lon="3.7394">
        <ele>58.200004577637</ele>
        <time>2010-02-21T12:06:17+01:00</time>
      </trkpt>
      <trkpt lat="43.5749" lon="3.73997">
        <ele>57.5</ele>
        <time>2010-02-21T12:06:32+01:00</time>
      </trkpt>
      <trkpt lat="43.5754" lon="3.74055">
        <ele>58.900001525879</ele>
        <time>2010-02-21T12:06:47+01:00</time>
      </trkpt>
      <trkpt lat="43.57611" lon="3.74135">
        <ele>60.099998474121</ele>
        <time>2010-02-21T12:07:09+01:00</time>
      </trkpt>
      <trkpt lat="43.57661" lon="3.74186">
        <ele>63.5</ele>
        <time>2010-02-21T12:07:24+01:00</time>
      </trkpt>
      <trkpt lat="43.57713" lon="3.7424">
        <ele>62.099998474121</ele>
        <time>2010-02-21T12:07:39+01:00</time>
      </trkpt>
      <trkpt lat="43.57769" lon="3.74305">
        <ele>62</ele>
        <time>2010-02-21T12:07:54+01:00</time>
      </trkpt>
      <trkpt lat="43.57837" lon="3.74401">
        <ele>61.099998474121</ele>
        <time>2010-02-21T12:08:16+01:00</time>
      </trkpt>
      <trkpt lat="43.57878" lon="3.7447">
        <ele>59</ele>
        <time>2010-02-21T12:08:31+01:00</time>
      </trkpt>
      <trkpt lat="43.57916" lon="3.7455">
        <ele>57.300003051758</ele>
        <time>2010-02-21T12:08:46+01:00</time>
      </trkpt>
      <trkpt lat="43.57952" lon="3.74631">
        <ele>58.900001525879</ele>
        <time>2010-02-21T12:09:01+01:00</time>
      </trkpt>
      <trkpt lat="43.58" lon="3.74742">
        <ele>57.700004577637</ele>
        <time>2010-02-21T12:09:21+01:00</time>
      </trkpt>
      <trkpt lat="43.58034" lon="3.74808">
        <ele>58.700004577637</ele>
        <time>2010-02-21T12:09:36+01:00</time>
      </trkpt>
      <trkpt lat="43.58069" lon="3.74884">
        <ele>59.800003051758</ele>
        <time>2010-02-21T12:09:51+01:00</time>
      </trkpt>
      <trkpt lat="43.58105" lon="3.74959">
        <ele>57.099998474121</ele>
        <time>2010-02-21T12:10:06+01:00</time>
      </trkpt>
      <trkpt lat="43.58156" lon="3.75076">
        <ele>57.800003051758</ele>
        <time>2010-02-21T12:10:29+01:00</time>
      </trkpt>
      <trkpt lat="43.58198" lon="3.75164">
        <ele>59.5</ele>
        <time>2010-02-21T12:10:44+01:00</time>
      </trkpt>
      <trkpt lat="43.58251" lon="3.75282">
        <ele>58.5</ele>
        <time>2010-02-21T12:11:03+01:00</time>
      </trkpt>
      <trkpt lat="43.58297" lon="3.7538">
        <ele>58.700004577637</ele>
        <time>2010-02-21T12:11:18+01:00</time>
      </trkpt>
      <trkpt lat="43.58335" lon="3.75473">
        <ele>57.900001525879</ele>
        <time>2010-02-21T12:11:33+01:00</time>
      </trkpt>
      <trkpt lat="43.58384" lon="3.75571">
        <ele>54.099998474121</ele>
        <time>2010-02-21T12:11:48+01:00</time>
      </trkpt>
      <trkpt lat="43.58434" lon="3.75699">
        <ele>55.300003051758</ele>
        <time>2010-02-21T12:12:10+01:00</time>
      </trkpt>
      <trkpt lat="43.58461" lon="3.75763">
        <ele>55.5</ele>
        <time>2010-02-21T12:12:25+01:00</time>
      </trkpt>
      <trkpt lat="43.58408" lon="3.75916">
        <ele>52.599998474121</ele>
        <time>2010-02-21T12:12:48+01:00</time>
      </trkpt>
      <trkpt lat="43.58373" lon="3.76016">
        <ele>54.400001525879</ele>
        <time>2010-02-21T12:13:03+01:00</time>
      </trkpt>
      <trkpt lat="43.58345" lon="3.76123">
        <ele>58.900001525879</ele>
        <time>2010-02-21T12:13:23+01:00</time>
      </trkpt>
      <trkpt lat="43.5834" lon="3.76145">
        <ele>59.900001525879</ele>
        <time>2010-02-21T12:13:38+01:00</time>
      </trkpt>
      <trkpt lat="43.58316" lon="3.76209">
        <ele>65.099998474121</ele>
        <time>2010-02-21T12:13:53+01:00</time>
      </trkpt>
      <trkpt lat="43.58288" lon="3.76269">
        <ele>63.800003051758</ele>
        <time>2010-02-21T12:14:08+01:00</time>
      </trkpt>
      <trkpt lat="43.58286" lon="3.76275">
        <ele>62.900001525879</ele>
        <time>2010-02-21T12:14:30+01:00</time>
      </trkpt>
      <trkpt lat="43.58286" lon="3.76274">
        <ele>62.900001525879</ele>
        <time>2010-02-21T12:14:45+01:00</time>
      </trkpt>
      <trkpt lat="43.58286" lon="3.76274">
        <ele>62.900001525879</ele>
        <time>2010-02-21T12:15:08+01:00</time>
      </trkpt>
      <trkpt lat="43.58286" lon="3.76274">
        <ele>62.900001525879</ele>
        <time>2010-02-21T12:15:23+01:00</time>
      </trkpt>
      <trkpt lat="43.58285" lon="3.76273">
        <ele>62.900001525879</ele>
        <time>2010-02-21T12:16:18+01:00</time>
      </trkpt>
      <trkpt lat="43.58285" lon="3.76273">
        <ele>62.900001525879</ele>
        <time>2010-02-21T12:16:33+01:00</time>
      </trkpt>
      <trkpt lat="43.58285" lon="3.76273">
        <ele>62.900001525879</ele>
        <time>2010-02-21T12:16:48+01:00</time>
      </trkpt>
      <trkpt lat="43.58285" lon="3.76273">
        <ele>62.900001525879</ele>
        <time>2010-02-21T12:17:03+01:00</time>
      </trkpt>
    </trkseg>
  </trk>
</gpx>